<?xml version="1.0" encoding="UTF-8" standalone="no" ?>
<gpx xmlns="http://www.topografix.com/GPX/1/1" xmlns:xsi="http://www.w3.org/2001/XMLSchema-instance" xsi:schemaLocation="http://www.topografix.com/GPX/1/1 http://www.topografix.com/GPX/1/1/gpx.xsd" version="1.1" creator="VisuGPX - https://www.visugpx.com">
  <metadata>
    <name>Charens Tarsimoure R2000</name>
    <desc><![CDATA[File with points/tracks from Locus Map/3.30.4]]></desc>
  </metadata>
  <trk>
    <name><![CDATA[F26310 Charens Tarsimoure R2000]]></name>
    <trkseg>
      <trkpt lat="44.53877" lon="5.50976">
        <ele>843.13</ele>
        <time>2018-05-23T06:50:40.000Z</time>
      </trkpt>
      <trkpt lat="44.53873" lon="5.50959">
        <ele>843.47</ele>
        <time>2018-05-23T06:50:51.000Z</time>
      </trkpt>
      <trkpt lat="44.53869" lon="5.50948">
        <ele>844.2</ele>
        <time>2018-05-23T06:53:52.000Z</time>
      </trkpt>
      <trkpt lat="44.53872" lon="5.50934">
        <ele>843.41</ele>
        <time>2018-05-23T06:55:02.000Z</time>
      </trkpt>
      <trkpt lat="44.53867" lon="5.50899">
        <ele>844.99</ele>
        <time>2018-05-23T06:55:12.000Z</time>
      </trkpt>
      <trkpt lat="44.5386" lon="5.50881">
        <ele>846.78</ele>
        <time>2018-05-23T06:55:22.000Z</time>
      </trkpt>
      <trkpt lat="44.53847" lon="5.50876">
        <ele>848.58</ele>
        <time>2018-05-23T06:55:32.000Z</time>
      </trkpt>
      <trkpt lat="44.53832" lon="5.50872">
        <ele>850.4</ele>
        <time>2018-05-23T06:55:42.000Z</time>
      </trkpt>
      <trkpt lat="44.53822" lon="5.50868">
        <ele>851.42</ele>
        <time>2018-05-23T06:55:52.000Z</time>
      </trkpt>
      <trkpt lat="44.53812" lon="5.50871">
        <ele>852.25</ele>
        <time>2018-05-23T06:56:04.000Z</time>
      </trkpt>
      <trkpt lat="44.53796" lon="5.50879">
        <ele>853.54</ele>
        <time>2018-05-23T06:56:14.000Z</time>
      </trkpt>
      <trkpt lat="44.53787" lon="5.50886">
        <ele>854.41</ele>
        <time>2018-05-23T06:56:24.000Z</time>
      </trkpt>
      <trkpt lat="44.53772" lon="5.50899">
        <ele>856.36</ele>
        <time>2018-05-23T06:56:34.000Z</time>
      </trkpt>
      <trkpt lat="44.53755" lon="5.50899">
        <ele>859.27</ele>
        <time>2018-05-23T06:56:44.000Z</time>
      </trkpt>
      <trkpt lat="44.53748" lon="5.50909">
        <ele>861.13</ele>
        <time>2018-05-23T06:56:54.000Z</time>
      </trkpt>
      <trkpt lat="44.53738" lon="5.50903">
        <ele>863.54</ele>
        <time>2018-05-23T06:57:05.000Z</time>
      </trkpt>
      <trkpt lat="44.53714" lon="5.50898">
        <ele>871.36</ele>
        <time>2018-05-23T06:57:15.000Z</time>
      </trkpt>
      <trkpt lat="44.53709" lon="5.50887">
        <ele>872.71</ele>
        <time>2018-05-23T06:57:25.000Z</time>
      </trkpt>
      <trkpt lat="44.53701" lon="5.50878">
        <ele>874.85</ele>
        <time>2018-05-23T06:57:42.000Z</time>
      </trkpt>
      <trkpt lat="44.53691" lon="5.50865">
        <ele>878.01</ele>
        <time>2018-05-23T06:57:52.000Z</time>
      </trkpt>
      <trkpt lat="44.53698" lon="5.50846">
        <ele>876.11</ele>
        <time>2018-05-23T06:58:58.000Z</time>
      </trkpt>
      <trkpt lat="44.53733" lon="5.5083">
        <ele>869.49</ele>
        <time>2018-05-23T06:59:08.000Z</time>
      </trkpt>
      <trkpt lat="44.53747" lon="5.50835">
        <ele>865.35</ele>
        <time>2018-05-23T06:59:18.000Z</time>
      </trkpt>
      <trkpt lat="44.53757" lon="5.50839">
        <ele>862.59</ele>
        <time>2018-05-23T06:59:37.000Z</time>
      </trkpt>
      <trkpt lat="44.53774" lon="5.50832">
        <ele>861</ele>
        <time>2018-05-23T06:59:47.000Z</time>
      </trkpt>
      <trkpt lat="44.53785" lon="5.50819">
        <ele>862.08</ele>
        <time>2018-05-23T06:59:57.000Z</time>
      </trkpt>
      <trkpt lat="44.53795" lon="5.50812">
        <ele>861.87</ele>
        <time>2018-05-23T07:00:07.000Z</time>
      </trkpt>
      <trkpt lat="44.53802" lon="5.5079">
        <ele>866.39</ele>
        <time>2018-05-23T07:00:17.000Z</time>
      </trkpt>
      <trkpt lat="44.53804" lon="5.50769">
        <ele>871.51</ele>
        <time>2018-05-23T07:00:27.000Z</time>
      </trkpt>
      <trkpt lat="44.53808" lon="5.50751">
        <ele>875.4</ele>
        <time>2018-05-23T07:00:37.000Z</time>
      </trkpt>
      <trkpt lat="44.5381" lon="5.50736">
        <ele>878.18</ele>
        <time>2018-05-23T07:00:47.000Z</time>
      </trkpt>
      <trkpt lat="44.53814" lon="5.50721">
        <ele>881.33</ele>
        <time>2018-05-23T07:00:57.000Z</time>
      </trkpt>
      <trkpt lat="44.53805" lon="5.50714">
        <ele>886.04</ele>
        <time>2018-05-23T07:01:19.000Z</time>
      </trkpt>
      <trkpt lat="44.53802" lon="5.50728">
        <ele>882.94</ele>
        <time>2018-05-23T07:01:29.000Z</time>
      </trkpt>
      <trkpt lat="44.53799" lon="5.50745">
        <ele>879.79</ele>
        <time>2018-05-23T07:01:39.000Z</time>
      </trkpt>
      <trkpt lat="44.53794" lon="5.50757">
        <ele>878.68</ele>
        <time>2018-05-23T07:01:49.000Z</time>
      </trkpt>
      <trkpt lat="44.53786" lon="5.50767">
        <ele>878.38</ele>
        <time>2018-05-23T07:01:59.000Z</time>
      </trkpt>
      <trkpt lat="44.53772" lon="5.50771">
        <ele>881.56</ele>
        <time>2018-05-23T07:02:09.000Z</time>
      </trkpt>
      <trkpt lat="44.53762" lon="5.50773">
        <ele>884</ele>
        <time>2018-05-23T07:02:23.000Z</time>
      </trkpt>
      <trkpt lat="44.53753" lon="5.5078">
        <ele>883.22</ele>
        <time>2018-05-23T07:02:34.000Z</time>
      </trkpt>
      <trkpt lat="44.53743" lon="5.50778">
        <ele>886.33</ele>
        <time>2018-05-23T07:02:46.000Z</time>
      </trkpt>
      <trkpt lat="44.53742" lon="5.50765">
        <ele>891.57</ele>
        <time>2018-05-23T07:02:57.000Z</time>
      </trkpt>
      <trkpt lat="44.5373" lon="5.50762">
        <ele>894.83</ele>
        <time>2018-05-23T07:03:07.000Z</time>
      </trkpt>
      <trkpt lat="44.53716" lon="5.50759">
        <ele>897.65</ele>
        <time>2018-05-23T07:03:17.000Z</time>
      </trkpt>
      <trkpt lat="44.537" lon="5.50764">
        <ele>897.93</ele>
        <time>2018-05-23T07:03:27.000Z</time>
      </trkpt>
      <trkpt lat="44.53692" lon="5.50755">
        <ele>901.42</ele>
        <time>2018-05-23T07:03:38.000Z</time>
      </trkpt>
      <trkpt lat="44.53677" lon="5.50747">
        <ele>905.11</ele>
        <time>2018-05-23T07:03:48.000Z</time>
      </trkpt>
      <trkpt lat="44.53666" lon="5.50762">
        <ele>903.13</ele>
        <time>2018-05-23T07:03:58.000Z</time>
      </trkpt>
      <trkpt lat="44.53662" lon="5.5078">
        <ele>898.95</ele>
        <time>2018-05-23T07:04:08.000Z</time>
      </trkpt>
      <trkpt lat="44.53652" lon="5.50798">
        <ele>896.52</ele>
        <time>2018-05-23T07:04:18.000Z</time>
      </trkpt>
      <trkpt lat="44.53644" lon="5.50806">
        <ele>896.71</ele>
        <time>2018-05-23T07:04:28.000Z</time>
      </trkpt>
      <trkpt lat="44.5363" lon="5.508">
        <ele>901.7</ele>
        <time>2018-05-23T07:04:38.000Z</time>
      </trkpt>
      <trkpt lat="44.5362" lon="5.50808">
        <ele>903.38</ele>
        <time>2018-05-23T07:04:48.000Z</time>
      </trkpt>
      <trkpt lat="44.5361" lon="5.50822">
        <ele>904.3</ele>
        <time>2018-05-23T07:04:58.000Z</time>
      </trkpt>
      <trkpt lat="44.53598" lon="5.50828">
        <ele>907.25</ele>
        <time>2018-05-23T07:05:08.000Z</time>
      </trkpt>
      <trkpt lat="44.53582" lon="5.50833">
        <ele>911.35</ele>
        <time>2018-05-23T07:05:18.000Z</time>
      </trkpt>
      <trkpt lat="44.53579" lon="5.5085">
        <ele>910.92</ele>
        <time>2018-05-23T07:05:28.000Z</time>
      </trkpt>
      <trkpt lat="44.53563" lon="5.50854">
        <ele>914.36</ele>
        <time>2018-05-23T07:05:38.000Z</time>
      </trkpt>
      <trkpt lat="44.53559" lon="5.50866">
        <ele>914.23</ele>
        <time>2018-05-23T07:05:52.000Z</time>
      </trkpt>
      <trkpt lat="44.53551" lon="5.50873">
        <ele>915.11</ele>
        <time>2018-05-23T07:06:08.000Z</time>
      </trkpt>
      <trkpt lat="44.53546" lon="5.5089">
        <ele>914.8</ele>
        <time>2018-05-23T07:06:18.000Z</time>
      </trkpt>
      <trkpt lat="44.53526" lon="5.50889">
        <ele>917.16</ele>
        <time>2018-05-23T07:06:28.000Z</time>
      </trkpt>
      <trkpt lat="44.53517" lon="5.50897">
        <ele>917.6</ele>
        <time>2018-05-23T07:06:38.000Z</time>
      </trkpt>
      <trkpt lat="44.53509" lon="5.50908">
        <ele>918</ele>
        <time>2018-05-23T07:06:59.000Z</time>
      </trkpt>
      <trkpt lat="44.5348" lon="5.50912">
        <ele>919.93</ele>
        <time>2018-05-23T07:07:09.000Z</time>
      </trkpt>
      <trkpt lat="44.53498" lon="5.50927">
        <ele>920.26</ele>
        <time>2018-05-23T07:07:19.000Z</time>
      </trkpt>
      <trkpt lat="44.53486" lon="5.5091">
        <ele>919.6</ele>
        <time>2018-05-23T07:07:29.000Z</time>
      </trkpt>
      <trkpt lat="44.53495" lon="5.50907">
        <ele>919.06</ele>
        <time>2018-05-23T07:07:44.000Z</time>
      </trkpt>
      <trkpt lat="44.53506" lon="5.50903">
        <ele>918.3</ele>
        <time>2018-05-23T07:07:54.000Z</time>
      </trkpt>
      <trkpt lat="44.53515" lon="5.50897">
        <ele>917.79</ele>
        <time>2018-05-23T07:08:04.000Z</time>
      </trkpt>
      <trkpt lat="44.53529" lon="5.50888">
        <ele>916.92</ele>
        <time>2018-05-23T07:08:14.000Z</time>
      </trkpt>
      <trkpt lat="44.53539" lon="5.50883">
        <ele>916.05</ele>
        <time>2018-05-23T07:08:25.000Z</time>
      </trkpt>
      <trkpt lat="44.53546" lon="5.50862">
        <ele>917</ele>
        <time>2018-05-23T07:08:35.000Z</time>
      </trkpt>
      <trkpt lat="44.53543" lon="5.50841">
        <ele>920.1</ele>
        <time>2018-05-23T07:08:45.000Z</time>
      </trkpt>
      <trkpt lat="44.53549" lon="5.50831">
        <ele>919.73</ele>
        <time>2018-05-23T07:08:55.000Z</time>
      </trkpt>
      <trkpt lat="44.53558" lon="5.50813">
        <ele>919.59</ele>
        <time>2018-05-23T07:09:05.000Z</time>
      </trkpt>
      <trkpt lat="44.53563" lon="5.508">
        <ele>920.09</ele>
        <time>2018-05-23T07:09:15.000Z</time>
      </trkpt>
      <trkpt lat="44.5357" lon="5.5079">
        <ele>919.47</ele>
        <time>2018-05-23T07:09:25.000Z</time>
      </trkpt>
      <trkpt lat="44.53579" lon="5.50777">
        <ele>919.18</ele>
        <time>2018-05-23T07:09:35.000Z</time>
      </trkpt>
      <trkpt lat="44.53584" lon="5.50763">
        <ele>920.45</ele>
        <time>2018-05-23T07:09:45.000Z</time>
      </trkpt>
      <trkpt lat="44.53593" lon="5.5075">
        <ele>921.02</ele>
        <time>2018-05-23T07:09:55.000Z</time>
      </trkpt>
      <trkpt lat="44.536" lon="5.50738">
        <ele>921.86</ele>
        <time>2018-05-23T07:10:05.000Z</time>
      </trkpt>
      <trkpt lat="44.53606" lon="5.50728">
        <ele>922.98</ele>
        <time>2018-05-23T07:10:17.000Z</time>
      </trkpt>
      <trkpt lat="44.53611" lon="5.50717">
        <ele>924.39</ele>
        <time>2018-05-23T07:10:27.000Z</time>
      </trkpt>
      <trkpt lat="44.53619" lon="5.507">
        <ele>927.22</ele>
        <time>2018-05-23T07:10:37.000Z</time>
      </trkpt>
      <trkpt lat="44.53626" lon="5.50691">
        <ele>928.2</ele>
        <time>2018-05-23T07:10:47.000Z</time>
      </trkpt>
      <trkpt lat="44.53631" lon="5.50679">
        <ele>929.9</ele>
        <time>2018-05-23T07:10:57.000Z</time>
      </trkpt>
      <trkpt lat="44.53643" lon="5.50665">
        <ele>930.53</ele>
        <time>2018-05-23T07:11:07.000Z</time>
      </trkpt>
      <trkpt lat="44.53652" lon="5.50662">
        <ele>929.46</ele>
        <time>2018-05-23T07:11:18.000Z</time>
      </trkpt>
      <trkpt lat="44.53663" lon="5.50664">
        <ele>927.17</ele>
        <time>2018-05-23T07:11:31.000Z</time>
      </trkpt>
      <trkpt lat="44.53671" lon="5.50658">
        <ele>926.9</ele>
        <time>2018-05-23T07:11:41.000Z</time>
      </trkpt>
      <trkpt lat="44.53682" lon="5.50646">
        <ele>927.41</ele>
        <time>2018-05-23T07:11:51.000Z</time>
      </trkpt>
      <trkpt lat="44.53693" lon="5.50649">
        <ele>925.34</ele>
        <time>2018-05-23T07:12:12.000Z</time>
      </trkpt>
      <trkpt lat="44.53703" lon="5.50637">
        <ele>925.32</ele>
        <time>2018-05-23T07:12:22.000Z</time>
      </trkpt>
      <trkpt lat="44.53692" lon="5.50635">
        <ele>927.28</ele>
        <time>2018-05-23T07:14:55.000Z</time>
      </trkpt>
      <trkpt lat="44.53669" lon="5.50636">
        <ele>931.13</ele>
        <time>2018-05-23T07:15:05.000Z</time>
      </trkpt>
      <trkpt lat="44.5366" lon="5.50638">
        <ele>932.56</ele>
        <time>2018-05-23T07:15:22.000Z</time>
      </trkpt>
      <trkpt lat="44.53632" lon="5.50648">
        <ele>936.22</ele>
        <time>2018-05-23T07:15:32.000Z</time>
      </trkpt>
      <trkpt lat="44.53623" lon="5.50651">
        <ele>937.57</ele>
        <time>2018-05-23T07:15:43.000Z</time>
      </trkpt>
      <trkpt lat="44.53614" lon="5.50657">
        <ele>938.11</ele>
        <time>2018-05-23T07:15:55.000Z</time>
      </trkpt>
      <trkpt lat="44.53606" lon="5.50669">
        <ele>937.16</ele>
        <time>2018-05-23T07:16:05.000Z</time>
      </trkpt>
      <trkpt lat="44.53596" lon="5.50669">
        <ele>939.17</ele>
        <time>2018-05-23T07:16:16.000Z</time>
      </trkpt>
      <trkpt lat="44.53579" lon="5.50669">
        <ele>942.13</ele>
        <time>2018-05-23T07:16:26.000Z</time>
      </trkpt>
      <trkpt lat="44.53572" lon="5.50678">
        <ele>941.66</ele>
        <time>2018-05-23T07:16:37.000Z</time>
      </trkpt>
      <trkpt lat="44.53581" lon="5.507">
        <ele>934.82</ele>
        <time>2018-05-23T07:16:47.000Z</time>
      </trkpt>
      <trkpt lat="44.5356" lon="5.50703">
        <ele>938.51</ele>
        <time>2018-05-23T07:16:57.000Z</time>
      </trkpt>
      <trkpt lat="44.5356" lon="5.50717">
        <ele>935.53</ele>
        <time>2018-05-23T07:17:10.000Z</time>
      </trkpt>
      <trkpt lat="44.53553" lon="5.50731">
        <ele>934.25</ele>
        <time>2018-05-23T07:17:20.000Z</time>
      </trkpt>
      <trkpt lat="44.53545" lon="5.50738">
        <ele>934.98</ele>
        <time>2018-05-23T07:17:30.000Z</time>
      </trkpt>
      <trkpt lat="44.53536" lon="5.50737">
        <ele>937.46</ele>
        <time>2018-05-23T07:17:41.000Z</time>
      </trkpt>
      <trkpt lat="44.53523" lon="5.50735">
        <ele>940.88</ele>
        <time>2018-05-23T07:17:51.000Z</time>
      </trkpt>
      <trkpt lat="44.53514" lon="5.50731">
        <ele>943.57</ele>
        <time>2018-05-23T07:18:04.000Z</time>
      </trkpt>
      <trkpt lat="44.53507" lon="5.50743">
        <ele>942.93</ele>
        <time>2018-05-23T07:18:14.000Z</time>
      </trkpt>
      <trkpt lat="44.53498" lon="5.50746">
        <ele>943.95</ele>
        <time>2018-05-23T07:18:24.000Z</time>
      </trkpt>
      <trkpt lat="44.53486" lon="5.50753">
        <ele>944.23</ele>
        <time>2018-05-23T07:18:34.000Z</time>
      </trkpt>
      <trkpt lat="44.53474" lon="5.50757">
        <ele>944.71</ele>
        <time>2018-05-23T07:18:49.000Z</time>
      </trkpt>
      <trkpt lat="44.53464" lon="5.50761">
        <ele>944.66</ele>
        <time>2018-05-23T07:19:11.000Z</time>
      </trkpt>
      <trkpt lat="44.53455" lon="5.50767">
        <ele>944.04</ele>
        <time>2018-05-23T07:19:21.000Z</time>
      </trkpt>
      <trkpt lat="44.53443" lon="5.50761">
        <ele>945.55</ele>
        <time>2018-05-23T07:19:54.000Z</time>
      </trkpt>
      <trkpt lat="44.53429" lon="5.50748">
        <ele>948.1</ele>
        <time>2018-05-23T07:20:04.000Z</time>
      </trkpt>
      <trkpt lat="44.53419" lon="5.50748">
        <ele>948.21</ele>
        <time>2018-05-23T07:20:14.000Z</time>
      </trkpt>
      <trkpt lat="44.53409" lon="5.50745">
        <ele>949</ele>
        <time>2018-05-23T07:20:24.000Z</time>
      </trkpt>
      <trkpt lat="44.53398" lon="5.5074">
        <ele>949.75</ele>
        <time>2018-05-23T07:20:34.000Z</time>
      </trkpt>
      <trkpt lat="44.53388" lon="5.50733">
        <ele>950.94</ele>
        <time>2018-05-23T07:20:44.000Z</time>
      </trkpt>
      <trkpt lat="44.53373" lon="5.50728">
        <ele>951.58</ele>
        <time>2018-05-23T07:20:54.000Z</time>
      </trkpt>
      <trkpt lat="44.53365" lon="5.50722">
        <ele>952.58</ele>
        <time>2018-05-23T07:21:18.000Z</time>
      </trkpt>
      <trkpt lat="44.53353" lon="5.50719">
        <ele>953.01</ele>
        <time>2018-05-23T07:21:38.000Z</time>
      </trkpt>
      <trkpt lat="44.53343" lon="5.50713">
        <ele>954.34</ele>
        <time>2018-05-23T07:21:48.000Z</time>
      </trkpt>
      <trkpt lat="44.5333" lon="5.50705">
        <ele>956.26</ele>
        <time>2018-05-23T07:21:58.000Z</time>
      </trkpt>
      <trkpt lat="44.5332" lon="5.507">
        <ele>957.35</ele>
        <time>2018-05-23T07:22:08.000Z</time>
      </trkpt>
      <trkpt lat="44.53313" lon="5.50691">
        <ele>959.46</ele>
        <time>2018-05-23T07:22:23.000Z</time>
      </trkpt>
      <trkpt lat="44.53303" lon="5.50683">
        <ele>961.43</ele>
        <time>2018-05-23T07:22:33.000Z</time>
      </trkpt>
      <trkpt lat="44.53293" lon="5.50684">
        <ele>961.4</ele>
        <time>2018-05-23T07:22:43.000Z</time>
      </trkpt>
      <trkpt lat="44.53286" lon="5.50673">
        <ele>963.92</ele>
        <time>2018-05-23T07:22:53.000Z</time>
      </trkpt>
      <trkpt lat="44.53276" lon="5.50673">
        <ele>964.06</ele>
        <time>2018-05-23T07:23:07.000Z</time>
      </trkpt>
      <trkpt lat="44.53265" lon="5.5067">
        <ele>964.89</ele>
        <time>2018-05-23T07:23:21.000Z</time>
      </trkpt>
      <trkpt lat="44.53256" lon="5.50665">
        <ele>966.12</ele>
        <time>2018-05-23T07:23:31.000Z</time>
      </trkpt>
      <trkpt lat="44.53244" lon="5.50662">
        <ele>967.4</ele>
        <time>2018-05-23T07:23:41.000Z</time>
      </trkpt>
      <trkpt lat="44.53233" lon="5.50659">
        <ele>968.46</ele>
        <time>2018-05-23T07:23:51.000Z</time>
      </trkpt>
      <trkpt lat="44.53224" lon="5.50658">
        <ele>969.34</ele>
        <time>2018-05-23T07:24:08.000Z</time>
      </trkpt>
      <trkpt lat="44.53217" lon="5.50648">
        <ele>972.05</ele>
        <time>2018-05-23T07:24:21.000Z</time>
      </trkpt>
      <trkpt lat="44.53208" lon="5.50642">
        <ele>974.07</ele>
        <time>2018-05-23T07:24:31.000Z</time>
      </trkpt>
      <trkpt lat="44.53197" lon="5.5064">
        <ele>975.16</ele>
        <time>2018-05-23T07:24:43.000Z</time>
      </trkpt>
      <trkpt lat="44.53185" lon="5.50636">
        <ele>976.67</ele>
        <time>2018-05-23T07:24:53.000Z</time>
      </trkpt>
      <trkpt lat="44.53179" lon="5.50626">
        <ele>979.26</ele>
        <time>2018-05-23T07:25:11.000Z</time>
      </trkpt>
      <trkpt lat="44.53181" lon="5.50613">
        <ele>982.19</ele>
        <time>2018-05-23T07:25:39.000Z</time>
      </trkpt>
      <trkpt lat="44.53187" lon="5.50601">
        <ele>985.22</ele>
        <time>2018-05-23T07:26:06.000Z</time>
      </trkpt>
      <trkpt lat="44.53192" lon="5.50589">
        <ele>988.11</ele>
        <time>2018-05-23T07:26:23.000Z</time>
      </trkpt>
      <trkpt lat="44.53184" lon="5.50599">
        <ele>985.84</ele>
        <time>2018-05-23T07:26:47.000Z</time>
      </trkpt>
      <trkpt lat="44.53179" lon="5.50613">
        <ele>982.33</ele>
        <time>2018-05-23T07:26:57.000Z</time>
      </trkpt>
      <trkpt lat="44.53179" lon="5.50626">
        <ele>979.19</ele>
        <time>2018-05-23T07:27:23.000Z</time>
      </trkpt>
      <trkpt lat="44.53184" lon="5.50637">
        <ele>976.29</ele>
        <time>2018-05-23T07:27:33.000Z</time>
      </trkpt>
      <trkpt lat="44.53194" lon="5.50644">
        <ele>974.29</ele>
        <time>2018-05-23T07:27:43.000Z</time>
      </trkpt>
      <trkpt lat="44.53203" lon="5.50646">
        <ele>973.24</ele>
        <time>2018-05-23T07:27:54.000Z</time>
      </trkpt>
      <trkpt lat="44.53212" lon="5.50649">
        <ele>972.19</ele>
        <time>2018-05-23T07:28:07.000Z</time>
      </trkpt>
      <trkpt lat="44.53214" lon="5.50661">
        <ele>969.13</ele>
        <time>2018-05-23T07:28:21.000Z</time>
      </trkpt>
      <trkpt lat="44.53212" lon="5.50674">
        <ele>966.56</ele>
        <time>2018-05-23T07:28:33.000Z</time>
      </trkpt>
      <trkpt lat="44.53204" lon="5.50681">
        <ele>965.79</ele>
        <time>2018-05-23T07:28:45.000Z</time>
      </trkpt>
      <trkpt lat="44.53201" lon="5.50693">
        <ele>963.56</ele>
        <time>2018-05-23T07:28:55.000Z</time>
      </trkpt>
      <trkpt lat="44.53187" lon="5.50692">
        <ele>964.87</ele>
        <time>2018-05-23T07:29:05.000Z</time>
      </trkpt>
      <trkpt lat="44.53174" lon="5.50687">
        <ele>966.8</ele>
        <time>2018-05-23T07:29:15.000Z</time>
      </trkpt>
      <trkpt lat="44.53168" lon="5.50696">
        <ele>965.53</ele>
        <time>2018-05-23T07:29:28.000Z</time>
      </trkpt>
      <trkpt lat="44.53158" lon="5.50704">
        <ele>964.96</ele>
        <time>2018-05-23T07:29:40.000Z</time>
      </trkpt>
      <trkpt lat="44.53144" lon="5.50721">
        <ele>963.99</ele>
        <time>2018-05-23T07:29:50.000Z</time>
      </trkpt>
      <trkpt lat="44.53135" lon="5.50723">
        <ele>964.73</ele>
        <time>2018-05-23T07:30:08.000Z</time>
      </trkpt>
      <trkpt lat="44.53114" lon="5.50712">
        <ele>967.59</ele>
        <time>2018-05-23T07:30:18.000Z</time>
      </trkpt>
      <trkpt lat="44.53109" lon="5.507">
        <ele>968.96</ele>
        <time>2018-05-23T07:30:31.000Z</time>
      </trkpt>
      <trkpt lat="44.53099" lon="5.50692">
        <ele>970.38</ele>
        <time>2018-05-23T07:30:41.000Z</time>
      </trkpt>
      <trkpt lat="44.53089" lon="5.5069">
        <ele>971.34</ele>
        <time>2018-05-23T07:30:51.000Z</time>
      </trkpt>
      <trkpt lat="44.53079" lon="5.50684">
        <ele>972.75</ele>
        <time>2018-05-23T07:31:01.000Z</time>
      </trkpt>
      <trkpt lat="44.53069" lon="5.5068">
        <ele>974.03</ele>
        <time>2018-05-23T07:31:11.000Z</time>
      </trkpt>
      <trkpt lat="44.53059" lon="5.50682">
        <ele>974.97</ele>
        <time>2018-05-23T07:31:26.000Z</time>
      </trkpt>
      <trkpt lat="44.53051" lon="5.50676">
        <ele>976.29</ele>
        <time>2018-05-23T07:31:36.000Z</time>
      </trkpt>
      <trkpt lat="44.5304" lon="5.50673">
        <ele>977.81</ele>
        <time>2018-05-23T07:31:48.000Z</time>
      </trkpt>
      <trkpt lat="44.5303" lon="5.50672">
        <ele>979.22</ele>
        <time>2018-05-23T07:31:58.000Z</time>
      </trkpt>
      <trkpt lat="44.5302" lon="5.5067">
        <ele>980.75</ele>
        <time>2018-05-23T07:32:08.000Z</time>
      </trkpt>
      <trkpt lat="44.53015" lon="5.50682">
        <ele>981.17</ele>
        <time>2018-05-23T07:32:18.000Z</time>
      </trkpt>
      <trkpt lat="44.53008" lon="5.50691">
        <ele>982.26</ele>
        <time>2018-05-23T07:32:28.000Z</time>
      </trkpt>
      <trkpt lat="44.52999" lon="5.50692">
        <ele>983.84</ele>
        <time>2018-05-23T07:32:40.000Z</time>
      </trkpt>
      <trkpt lat="44.52993" lon="5.50707">
        <ele>985.14</ele>
        <time>2018-05-23T07:32:50.000Z</time>
      </trkpt>
      <trkpt lat="44.52984" lon="5.50711">
        <ele>986.87</ele>
        <time>2018-05-23T07:33:07.000Z</time>
      </trkpt>
      <trkpt lat="44.52978" lon="5.5072">
        <ele>988.44</ele>
        <time>2018-05-23T07:33:17.000Z</time>
      </trkpt>
      <trkpt lat="44.5297" lon="5.5073">
        <ele>990.25</ele>
        <time>2018-05-23T07:33:29.000Z</time>
      </trkpt>
      <trkpt lat="44.5296" lon="5.5073">
        <ele>992.12</ele>
        <time>2018-05-23T07:33:39.000Z</time>
      </trkpt>
      <trkpt lat="44.52952" lon="5.50738">
        <ele>994.02</ele>
        <time>2018-05-23T07:33:55.000Z</time>
      </trkpt>
      <trkpt lat="44.52944" lon="5.50745">
        <ele>995.85</ele>
        <time>2018-05-23T07:34:33.000Z</time>
      </trkpt>
      <trkpt lat="44.52935" lon="5.50752">
        <ele>997.9</ele>
        <time>2018-05-23T07:34:45.000Z</time>
      </trkpt>
      <trkpt lat="44.52928" lon="5.50759">
        <ele>999.85</ele>
        <time>2018-05-23T07:35:01.000Z</time>
      </trkpt>
      <trkpt lat="44.52918" lon="5.50761">
        <ele>1002.09</ele>
        <time>2018-05-23T07:35:11.000Z</time>
      </trkpt>
      <trkpt lat="44.52908" lon="5.50761">
        <ele>1004.36</ele>
        <time>2018-05-23T07:35:22.000Z</time>
      </trkpt>
      <trkpt lat="44.52902" lon="5.50769">
        <ele>1006.29</ele>
        <time>2018-05-23T07:35:32.000Z</time>
      </trkpt>
      <trkpt lat="44.52893" lon="5.50772">
        <ele>1008.54</ele>
        <time>2018-05-23T07:35:47.000Z</time>
      </trkpt>
      <trkpt lat="44.52885" lon="5.50778">
        <ele>1010.71</ele>
        <time>2018-05-23T07:35:59.000Z</time>
      </trkpt>
      <trkpt lat="44.52877" lon="5.50786">
        <ele>1012.96</ele>
        <time>2018-05-23T07:36:10.000Z</time>
      </trkpt>
      <trkpt lat="44.52871" lon="5.50799">
        <ele>1014.89</ele>
        <time>2018-05-23T07:36:28.000Z</time>
      </trkpt>
      <trkpt lat="44.52862" lon="5.50805">
        <ele>1017.28</ele>
        <time>2018-05-23T07:36:41.000Z</time>
      </trkpt>
      <trkpt lat="44.52856" lon="5.50815">
        <ele>1019.4</ele>
        <time>2018-05-23T07:36:55.000Z</time>
      </trkpt>
      <trkpt lat="44.52847" lon="5.50823">
        <ele>1021.86</ele>
        <time>2018-05-23T07:37:08.000Z</time>
      </trkpt>
      <trkpt lat="44.52839" lon="5.5083">
        <ele>1024.24</ele>
        <time>2018-05-23T07:37:20.000Z</time>
      </trkpt>
      <trkpt lat="44.52831" lon="5.50836">
        <ele>1026.65</ele>
        <time>2018-05-23T07:37:36.000Z</time>
      </trkpt>
      <trkpt lat="44.52828" lon="5.50848">
        <ele>1027.87</ele>
        <time>2018-05-23T07:37:49.000Z</time>
      </trkpt>
      <trkpt lat="44.52821" lon="5.50861">
        <ele>1030.41</ele>
        <time>2018-05-23T07:38:01.000Z</time>
      </trkpt>
      <trkpt lat="44.52812" lon="5.50864">
        <ele>1032.99</ele>
        <time>2018-05-23T07:38:50.000Z</time>
      </trkpt>
      <trkpt lat="44.52802" lon="5.50868">
        <ele>1035.93</ele>
        <time>2018-05-23T07:39:07.000Z</time>
      </trkpt>
      <trkpt lat="44.52792" lon="5.50875">
        <ele>1039.42</ele>
        <time>2018-05-23T07:39:17.000Z</time>
      </trkpt>
      <trkpt lat="44.52781" lon="5.50881">
        <ele>1042.82</ele>
        <time>2018-05-23T07:39:48.000Z</time>
      </trkpt>
      <trkpt lat="44.52771" lon="5.5088">
        <ele>1046.16</ele>
        <time>2018-05-23T07:40:03.000Z</time>
      </trkpt>
      <trkpt lat="44.52764" lon="5.5089">
        <ele>1048.83</ele>
        <time>2018-05-23T07:40:14.000Z</time>
      </trkpt>
      <trkpt lat="44.52761" lon="5.50903">
        <ele>1050.71</ele>
        <time>2018-05-23T07:40:29.000Z</time>
      </trkpt>
      <trkpt lat="44.5275" lon="5.50904">
        <ele>1054.31</ele>
        <time>2018-05-23T07:41:35.000Z</time>
      </trkpt>
      <trkpt lat="44.52739" lon="5.50926">
        <ele>1059.01</ele>
        <time>2018-05-23T07:41:45.000Z</time>
      </trkpt>
      <trkpt lat="44.52729" lon="5.5093">
        <ele>1062.3</ele>
        <time>2018-05-23T07:42:13.000Z</time>
      </trkpt>
      <trkpt lat="44.52711" lon="5.50933">
        <ele>1068.38</ele>
        <time>2018-05-23T07:42:23.000Z</time>
      </trkpt>
      <trkpt lat="44.52702" lon="5.50932">
        <ele>1071.26</ele>
        <time>2018-05-23T07:42:49.000Z</time>
      </trkpt>
      <trkpt lat="44.52697" lon="5.50944">
        <ele>1073.1</ele>
        <time>2018-05-23T07:43:01.000Z</time>
      </trkpt>
      <trkpt lat="44.52689" lon="5.50951">
        <ele>1075.82</ele>
        <time>2018-05-23T07:43:36.000Z</time>
      </trkpt>
      <trkpt lat="44.52675" lon="5.5096">
        <ele>1080.77</ele>
        <time>2018-05-23T07:43:46.000Z</time>
      </trkpt>
      <trkpt lat="44.52665" lon="5.50959">
        <ele>1083.87</ele>
        <time>2018-05-23T07:44:03.000Z</time>
      </trkpt>
      <trkpt lat="44.52657" lon="5.50953">
        <ele>1086.51</ele>
        <time>2018-05-23T07:44:25.000Z</time>
      </trkpt>
      <trkpt lat="44.52648" lon="5.50953">
        <ele>1089.77</ele>
        <time>2018-05-23T07:44:41.000Z</time>
      </trkpt>
      <trkpt lat="44.52641" lon="5.5094">
        <ele>1092.38</ele>
        <time>2018-05-23T07:49:21.000Z</time>
      </trkpt>
      <trkpt lat="44.52643" lon="5.50912">
        <ele>1093.89</ele>
        <time>2018-05-23T07:49:31.000Z</time>
      </trkpt>
      <trkpt lat="44.5264" lon="5.50898">
        <ele>1096.7</ele>
        <time>2018-05-23T07:50:19.000Z</time>
      </trkpt>
      <trkpt lat="44.52638" lon="5.50884">
        <ele>1099.83</ele>
        <time>2018-05-23T07:50:29.000Z</time>
      </trkpt>
      <trkpt lat="44.52635" lon="5.50871">
        <ele>1103.25</ele>
        <time>2018-05-23T07:50:39.000Z</time>
      </trkpt>
      <trkpt lat="44.52626" lon="5.50861">
        <ele>1109.09</ele>
        <time>2018-05-23T07:50:49.000Z</time>
      </trkpt>
      <trkpt lat="44.52635" lon="5.50857">
        <ele>1105.99</ele>
        <time>2018-05-23T07:51:01.000Z</time>
      </trkpt>
      <trkpt lat="44.52627" lon="5.5085">
        <ele>1110.95</ele>
        <time>2018-05-23T07:51:11.000Z</time>
      </trkpt>
      <trkpt lat="44.52631" lon="5.50837">
        <ele>1111.68</ele>
        <time>2018-05-23T07:51:22.000Z</time>
      </trkpt>
      <trkpt lat="44.52638" lon="5.50826">
        <ele>1110.75</ele>
        <time>2018-05-23T07:51:43.000Z</time>
      </trkpt>
      <trkpt lat="44.52635" lon="5.50814">
        <ele>1114.33</ele>
        <time>2018-05-23T07:52:00.000Z</time>
      </trkpt>
      <trkpt lat="44.5264" lon="5.508">
        <ele>1114.92</ele>
        <time>2018-05-23T07:52:56.000Z</time>
      </trkpt>
      <trkpt lat="44.52655" lon="5.50787">
        <ele>1111.03</ele>
        <time>2018-05-23T07:53:06.000Z</time>
      </trkpt>
      <trkpt lat="44.52646" lon="5.50774">
        <ele>1118.06</ele>
        <time>2018-05-23T07:53:16.000Z</time>
      </trkpt>
      <trkpt lat="44.5265" lon="5.50762">
        <ele>1118.71</ele>
        <time>2018-05-23T07:53:36.000Z</time>
      </trkpt>
      <trkpt lat="44.52653" lon="5.5075">
        <ele>1119.49</ele>
        <time>2018-05-23T07:53:53.000Z</time>
      </trkpt>
      <trkpt lat="44.52657" lon="5.50737">
        <ele>1120.14</ele>
        <time>2018-05-23T07:54:03.000Z</time>
      </trkpt>
      <trkpt lat="44.52662" lon="5.50725">
        <ele>1119.78</ele>
        <time>2018-05-23T07:54:19.000Z</time>
      </trkpt>
      <trkpt lat="44.52666" lon="5.50712">
        <ele>1120.32</ele>
        <time>2018-05-23T07:54:31.000Z</time>
      </trkpt>
      <trkpt lat="44.52668" lon="5.50696">
        <ele>1122.19</ele>
        <time>2018-05-23T07:55:20.000Z</time>
      </trkpt>
      <trkpt lat="44.52661" lon="5.50682">
        <ele>1128.24</ele>
        <time>2018-05-23T07:55:30.000Z</time>
      </trkpt>
      <trkpt lat="44.52665" lon="5.50669">
        <ele>1128.38</ele>
        <time>2018-05-23T07:55:40.000Z</time>
      </trkpt>
      <trkpt lat="44.52659" lon="5.50659">
        <ele>1132.96</ele>
        <time>2018-05-23T07:55:56.000Z</time>
      </trkpt>
      <trkpt lat="44.52668" lon="5.50647">
        <ele>1131.02</ele>
        <time>2018-05-23T07:56:06.000Z</time>
      </trkpt>
      <trkpt lat="44.52678" lon="5.50631">
        <ele>1128.57</ele>
        <time>2018-05-23T07:56:16.000Z</time>
      </trkpt>
      <trkpt lat="44.52677" lon="5.50617">
        <ele>1131.61</ele>
        <time>2018-05-23T07:56:26.000Z</time>
      </trkpt>
      <trkpt lat="44.52673" lon="5.50605">
        <ele>1135.9</ele>
        <time>2018-05-23T07:56:36.000Z</time>
      </trkpt>
      <trkpt lat="44.52678" lon="5.50592">
        <ele>1136.01</ele>
        <time>2018-05-23T07:56:54.000Z</time>
      </trkpt>
      <trkpt lat="44.52684" lon="5.50582">
        <ele>1134.42</ele>
        <time>2018-05-23T07:57:04.000Z</time>
      </trkpt>
      <trkpt lat="44.52683" lon="5.50569">
        <ele>1137.13</ele>
        <time>2018-05-23T07:57:17.000Z</time>
      </trkpt>
      <trkpt lat="44.5269" lon="5.50554">
        <ele>1136.21</ele>
        <time>2018-05-23T07:57:27.000Z</time>
      </trkpt>
      <trkpt lat="44.52688" lon="5.50539">
        <ele>1139.76</ele>
        <time>2018-05-23T07:57:38.000Z</time>
      </trkpt>
      <trkpt lat="44.52697" lon="5.50527">
        <ele>1136.88</ele>
        <time>2018-05-23T07:57:48.000Z</time>
      </trkpt>
      <trkpt lat="44.52703" lon="5.50512">
        <ele>1135.3</ele>
        <time>2018-05-23T07:57:59.000Z</time>
      </trkpt>
      <trkpt lat="44.52704" lon="5.50499">
        <ele>1135.91</ele>
        <time>2018-05-23T07:58:09.000Z</time>
      </trkpt>
      <trkpt lat="44.52705" lon="5.50485">
        <ele>1136.55</ele>
        <time>2018-05-23T07:58:27.000Z</time>
      </trkpt>
      <trkpt lat="44.52703" lon="5.50473">
        <ele>1139.22</ele>
        <time>2018-05-23T07:58:46.000Z</time>
      </trkpt>
      <trkpt lat="44.52702" lon="5.50457">
        <ele>1141.65</ele>
        <time>2018-05-23T07:59:01.000Z</time>
      </trkpt>
      <trkpt lat="44.52714" lon="5.5045">
        <ele>1134.08</ele>
        <time>2018-05-23T07:59:11.000Z</time>
      </trkpt>
      <trkpt lat="44.52706" lon="5.50442">
        <ele>1139.51</ele>
        <time>2018-05-23T07:59:23.000Z</time>
      </trkpt>
      <trkpt lat="44.52708" lon="5.50423">
        <ele>1139.16</ele>
        <time>2018-05-23T07:59:33.000Z</time>
      </trkpt>
      <trkpt lat="44.52703" lon="5.50411">
        <ele>1142.98</ele>
        <time>2018-05-23T07:59:44.000Z</time>
      </trkpt>
      <trkpt lat="44.52699" lon="5.50399">
        <ele>1145.54</ele>
        <time>2018-05-23T08:00:05.000Z</time>
      </trkpt>
      <trkpt lat="44.527" lon="5.50386">
        <ele>1144.99</ele>
        <time>2018-05-23T08:00:37.000Z</time>
      </trkpt>
      <trkpt lat="44.52693" lon="5.5036">
        <ele>1148.77</ele>
        <time>2018-05-23T08:00:47.000Z</time>
      </trkpt>
      <trkpt lat="44.52697" lon="5.50344">
        <ele>1144.8</ele>
        <time>2018-05-23T08:00:57.000Z</time>
      </trkpt>
      <trkpt lat="44.52693" lon="5.5033">
        <ele>1147.13</ele>
        <time>2018-05-23T08:01:08.000Z</time>
      </trkpt>
      <trkpt lat="44.52694" lon="5.50317">
        <ele>1144.94</ele>
        <time>2018-05-23T08:01:19.000Z</time>
      </trkpt>
      <trkpt lat="44.52689" lon="5.50305">
        <ele>1146.5</ele>
        <time>2018-05-23T08:01:29.000Z</time>
      </trkpt>
      <trkpt lat="44.5268" lon="5.50291">
        <ele>1150.93</ele>
        <time>2018-05-23T08:01:39.000Z</time>
      </trkpt>
      <trkpt lat="44.52672" lon="5.50275">
        <ele>1153.25</ele>
        <time>2018-05-23T08:01:49.000Z</time>
      </trkpt>
      <trkpt lat="44.52664" lon="5.50268">
        <ele>1156.74</ele>
        <time>2018-05-23T08:02:11.000Z</time>
      </trkpt>
      <trkpt lat="44.52658" lon="5.50259">
        <ele>1159.5</ele>
        <time>2018-05-23T08:03:12.000Z</time>
      </trkpt>
      <trkpt lat="44.52624" lon="5.50239">
        <ele>1173.85</ele>
        <time>2018-05-23T08:03:22.000Z</time>
      </trkpt>
      <trkpt lat="44.52608" lon="5.50232">
        <ele>1179.25</ele>
        <time>2018-05-23T08:03:32.000Z</time>
      </trkpt>
      <trkpt lat="44.52596" lon="5.50217">
        <ele>1181.18</ele>
        <time>2018-05-23T08:03:42.000Z</time>
      </trkpt>
      <trkpt lat="44.52586" lon="5.50203">
        <ele>1181.93</ele>
        <time>2018-05-23T08:03:52.000Z</time>
      </trkpt>
      <trkpt lat="44.52577" lon="5.50201">
        <ele>1183.66</ele>
        <time>2018-05-23T08:05:21.000Z</time>
      </trkpt>
      <trkpt lat="44.52562" lon="5.50198">
        <ele>1185.98</ele>
        <time>2018-05-23T08:05:31.000Z</time>
      </trkpt>
      <trkpt lat="44.52549" lon="5.50202">
        <ele>1188.38</ele>
        <time>2018-05-23T08:05:41.000Z</time>
      </trkpt>
      <trkpt lat="44.52543" lon="5.50213">
        <ele>1191.39</ele>
        <time>2018-05-23T08:05:51.000Z</time>
      </trkpt>
      <trkpt lat="44.52535" lon="5.50219">
        <ele>1193.86</ele>
        <time>2018-05-23T08:06:12.000Z</time>
      </trkpt>
      <trkpt lat="44.52525" lon="5.50223">
        <ele>1196.2</ele>
        <time>2018-05-23T08:06:24.000Z</time>
      </trkpt>
      <trkpt lat="44.52515" lon="5.50223">
        <ele>1197.59</ele>
        <time>2018-05-23T08:07:49.000Z</time>
      </trkpt>
      <trkpt lat="44.52498" lon="5.50235">
        <ele>1203.18</ele>
        <time>2018-05-23T08:07:59.000Z</time>
      </trkpt>
      <trkpt lat="44.52485" lon="5.50229">
        <ele>1203.02</ele>
        <time>2018-05-23T08:08:09.000Z</time>
      </trkpt>
      <trkpt lat="44.52474" lon="5.50225">
        <ele>1203.2</ele>
        <time>2018-05-23T08:08:19.000Z</time>
      </trkpt>
      <trkpt lat="44.52463" lon="5.50228">
        <ele>1204.61</ele>
        <time>2018-05-23T08:08:46.000Z</time>
      </trkpt>
      <trkpt lat="44.52452" lon="5.50231">
        <ele>1206.29</ele>
        <time>2018-05-23T08:08:56.000Z</time>
      </trkpt>
      <trkpt lat="44.52443" lon="5.50238">
        <ele>1208.43</ele>
        <time>2018-05-23T08:09:07.000Z</time>
      </trkpt>
      <trkpt lat="44.52435" lon="5.50245">
        <ele>1210.69</ele>
        <time>2018-05-23T08:09:17.000Z</time>
      </trkpt>
      <trkpt lat="44.52428" lon="5.50255">
        <ele>1213.13</ele>
        <time>2018-05-23T08:09:28.000Z</time>
      </trkpt>
      <trkpt lat="44.52421" lon="5.50262">
        <ele>1215.48</ele>
        <time>2018-05-23T08:10:13.000Z</time>
      </trkpt>
      <trkpt lat="44.52409" lon="5.50274">
        <ele>1219.46</ele>
        <time>2018-05-23T08:10:23.000Z</time>
      </trkpt>
      <trkpt lat="44.52401" lon="5.50288">
        <ele>1223.18</ele>
        <time>2018-05-23T08:10:33.000Z</time>
      </trkpt>
      <trkpt lat="44.52394" lon="5.50297">
        <ele>1225.55</ele>
        <time>2018-05-23T08:10:58.000Z</time>
      </trkpt>
      <trkpt lat="44.52389" lon="5.50308">
        <ele>1227.86</ele>
        <time>2018-05-23T08:11:11.000Z</time>
      </trkpt>
      <trkpt lat="44.52382" lon="5.50317">
        <ele>1229.67</ele>
        <time>2018-05-23T08:11:22.000Z</time>
      </trkpt>
      <trkpt lat="44.52372" lon="5.50328">
        <ele>1231.8</ele>
        <time>2018-05-23T08:11:32.000Z</time>
      </trkpt>
      <trkpt lat="44.52364" lon="5.50339">
        <ele>1233.37</ele>
        <time>2018-05-23T08:11:45.000Z</time>
      </trkpt>
      <trkpt lat="44.52361" lon="5.50352">
        <ele>1234.88</ele>
        <time>2018-05-23T08:11:56.000Z</time>
      </trkpt>
      <trkpt lat="44.52353" lon="5.50357">
        <ele>1235.68</ele>
        <time>2018-05-23T08:12:07.000Z</time>
      </trkpt>
      <trkpt lat="44.52351" lon="5.5037">
        <ele>1237.12</ele>
        <time>2018-05-23T08:12:23.000Z</time>
      </trkpt>
      <trkpt lat="44.52343" lon="5.50386">
        <ele>1239.07</ele>
        <time>2018-05-23T08:12:33.000Z</time>
      </trkpt>
      <trkpt lat="44.5234" lon="5.50399">
        <ele>1240.59</ele>
        <time>2018-05-23T08:13:15.000Z</time>
      </trkpt>
      <trkpt lat="44.52343" lon="5.50419">
        <ele>1243.35</ele>
        <time>2018-05-23T08:13:25.000Z</time>
      </trkpt>
      <trkpt lat="44.52332" lon="5.50431">
        <ele>1245.06</ele>
        <time>2018-05-23T08:13:35.000Z</time>
      </trkpt>
      <trkpt lat="44.52329" lon="5.50443">
        <ele>1247.18</ele>
        <time>2018-05-23T08:13:53.000Z</time>
      </trkpt>
      <trkpt lat="44.52326" lon="5.50455">
        <ele>1249.34</ele>
        <time>2018-05-23T08:14:05.000Z</time>
      </trkpt>
      <trkpt lat="44.52317" lon="5.50458">
        <ele>1250.23</ele>
        <time>2018-05-23T08:14:15.000Z</time>
      </trkpt>
      <trkpt lat="44.52313" lon="5.50446">
        <ele>1248.46</ele>
        <time>2018-05-23T08:14:28.000Z</time>
      </trkpt>
      <trkpt lat="44.52316" lon="5.5046">
        <ele>1250.59</ele>
        <time>2018-05-23T08:14:43.000Z</time>
      </trkpt>
      <trkpt lat="44.52301" lon="5.50459">
        <ele>1251.42</ele>
        <time>2018-05-23T08:14:53.000Z</time>
      </trkpt>
      <trkpt lat="44.52294" lon="5.50468">
        <ele>1253.39</ele>
        <time>2018-05-23T08:15:11.000Z</time>
      </trkpt>
      <trkpt lat="44.52284" lon="5.50469">
        <ele>1254.36</ele>
        <time>2018-05-23T08:15:26.000Z</time>
      </trkpt>
      <trkpt lat="44.52271" lon="5.50466">
        <ele>1255.57</ele>
        <time>2018-05-23T08:16:36.000Z</time>
      </trkpt>
      <trkpt lat="44.52253" lon="5.50463">
        <ele>1258.51</ele>
        <time>2018-05-23T08:16:46.000Z</time>
      </trkpt>
      <trkpt lat="44.52244" lon="5.5046">
        <ele>1260.18</ele>
        <time>2018-05-23T08:17:03.000Z</time>
      </trkpt>
      <trkpt lat="44.52233" lon="5.50457">
        <ele>1262.78</ele>
        <time>2018-05-23T08:18:13.000Z</time>
      </trkpt>
      <trkpt lat="44.52225" lon="5.50447">
        <ele>1264.92</ele>
        <time>2018-05-23T08:18:23.000Z</time>
      </trkpt>
      <trkpt lat="44.52216" lon="5.50446">
        <ele>1267.97</ele>
        <time>2018-05-23T08:19:39.000Z</time>
      </trkpt>
      <trkpt lat="44.52198" lon="5.50438">
        <ele>1274.62</ele>
        <time>2018-05-23T08:19:49.000Z</time>
      </trkpt>
      <trkpt lat="44.52181" lon="5.50429">
        <ele>1280.4</ele>
        <time>2018-05-23T08:19:59.000Z</time>
      </trkpt>
      <trkpt lat="44.52171" lon="5.50433">
        <ele>1283.4</ele>
        <time>2018-05-23T08:20:15.000Z</time>
      </trkpt>
      <trkpt lat="44.52163" lon="5.50422">
        <ele>1285.8</ele>
        <time>2018-05-23T08:20:25.000Z</time>
      </trkpt>
      <trkpt lat="44.52154" lon="5.50431">
        <ele>1287.58</ele>
        <time>2018-05-23T08:21:06.000Z</time>
      </trkpt>
      <trkpt lat="44.52146" lon="5.50438">
        <ele>1289.41</ele>
        <time>2018-05-23T08:21:21.000Z</time>
      </trkpt>
      <trkpt lat="44.52137" lon="5.50443">
        <ele>1291.42</ele>
        <time>2018-05-23T08:22:18.000Z</time>
      </trkpt>
      <trkpt lat="44.52126" lon="5.50448">
        <ele>1293.69</ele>
        <time>2018-05-23T08:22:28.000Z</time>
      </trkpt>
      <trkpt lat="44.52115" lon="5.50445">
        <ele>1295.7</ele>
        <time>2018-05-23T08:22:38.000Z</time>
      </trkpt>
      <trkpt lat="44.52104" lon="5.50449">
        <ele>1297.2</ele>
        <time>2018-05-23T08:22:48.000Z</time>
      </trkpt>
      <trkpt lat="44.52093" lon="5.50452">
        <ele>1298.01</ele>
        <time>2018-05-23T08:23:01.000Z</time>
      </trkpt>
      <trkpt lat="44.52083" lon="5.50454">
        <ele>1298.08</ele>
        <time>2018-05-23T08:23:11.000Z</time>
      </trkpt>
      <trkpt lat="44.52078" lon="5.50465">
        <ele>1297.71</ele>
        <time>2018-05-23T08:28:40.000Z</time>
      </trkpt>
      <trkpt lat="44.52075" lon="5.50477">
        <ele>1297.4</ele>
        <time>2018-05-23T08:28:50.000Z</time>
      </trkpt>
      <trkpt lat="44.52083" lon="5.50486">
        <ele>1297.84</ele>
        <time>2018-05-23T08:29:00.000Z</time>
      </trkpt>
      <trkpt lat="44.52082" lon="5.50499">
        <ele>1297.94</ele>
        <time>2018-05-23T08:29:10.000Z</time>
      </trkpt>
      <trkpt lat="44.52089" lon="5.50509">
        <ele>1298.2</ele>
        <time>2018-05-23T08:29:21.000Z</time>
      </trkpt>
      <trkpt lat="44.52094" lon="5.5052">
        <ele>1298.32</ele>
        <time>2018-05-23T08:29:31.000Z</time>
      </trkpt>
      <trkpt lat="44.52093" lon="5.50538">
        <ele>1299.09</ele>
        <time>2018-05-23T08:29:41.000Z</time>
      </trkpt>
      <trkpt lat="44.52091" lon="5.50553">
        <ele>1299.89</ele>
        <time>2018-05-23T08:29:51.000Z</time>
      </trkpt>
      <trkpt lat="44.52092" lon="5.50566">
        <ele>1300.71</ele>
        <time>2018-05-23T08:30:06.000Z</time>
      </trkpt>
      <trkpt lat="44.52096" lon="5.50579">
        <ele>1301.45</ele>
        <time>2018-05-23T08:30:19.000Z</time>
      </trkpt>
      <trkpt lat="44.52091" lon="5.50592">
        <ele>1302.76</ele>
        <time>2018-05-23T08:30:35.000Z</time>
      </trkpt>
      <trkpt lat="44.5209" lon="5.50609">
        <ele>1304.46</ele>
        <time>2018-05-23T08:30:45.000Z</time>
      </trkpt>
      <trkpt lat="44.52084" lon="5.5062">
        <ele>1305.78</ele>
        <time>2018-05-23T08:30:55.000Z</time>
      </trkpt>
      <trkpt lat="44.52077" lon="5.50635">
        <ele>1307.2</ele>
        <time>2018-05-23T08:31:05.000Z</time>
      </trkpt>
      <trkpt lat="44.52077" lon="5.50649">
        <ele>1309.01</ele>
        <time>2018-05-23T08:31:17.000Z</time>
      </trkpt>
      <trkpt lat="44.5207" lon="5.50658">
        <ele>1309.69</ele>
        <time>2018-05-23T08:31:31.000Z</time>
      </trkpt>
      <trkpt lat="44.52069" lon="5.50676">
        <ele>1312.22</ele>
        <time>2018-05-23T08:31:41.000Z</time>
      </trkpt>
      <trkpt lat="44.52065" lon="5.50687">
        <ele>1313.82</ele>
        <time>2018-05-23T08:31:51.000Z</time>
      </trkpt>
      <trkpt lat="44.52064" lon="5.50701">
        <ele>1316.28</ele>
        <time>2018-05-23T08:32:05.000Z</time>
      </trkpt>
      <trkpt lat="44.52062" lon="5.50718">
        <ele>1319.52</ele>
        <time>2018-05-23T08:32:32.000Z</time>
      </trkpt>
      <trkpt lat="44.52066" lon="5.50733">
        <ele>1322.92</ele>
        <time>2018-05-23T08:32:42.000Z</time>
      </trkpt>
      <trkpt lat="44.52071" lon="5.50745">
        <ele>1325.53</ele>
        <time>2018-05-23T08:33:02.000Z</time>
      </trkpt>
      <trkpt lat="44.52074" lon="5.5076">
        <ele>1327.95</ele>
        <time>2018-05-23T08:33:28.000Z</time>
      </trkpt>
      <trkpt lat="44.52086" lon="5.50763">
        <ele>1328.78</ele>
        <time>2018-05-23T08:33:38.000Z</time>
      </trkpt>
      <trkpt lat="44.52095" lon="5.5077">
        <ele>1329.46</ele>
        <time>2018-05-23T08:33:53.000Z</time>
      </trkpt>
      <trkpt lat="44.5209" lon="5.50782">
        <ele>1331.22</ele>
        <time>2018-05-23T08:35:43.000Z</time>
      </trkpt>
      <trkpt lat="44.52085" lon="5.50803">
        <ele>1333.61</ele>
        <time>2018-05-23T08:35:53.000Z</time>
      </trkpt>
      <trkpt lat="44.52075" lon="5.50806">
        <ele>1333.82</ele>
        <time>2018-05-23T08:36:10.000Z</time>
      </trkpt>
      <trkpt lat="44.52066" lon="5.50804">
        <ele>1333.18</ele>
        <time>2018-05-23T08:36:25.000Z</time>
      </trkpt>
      <trkpt lat="44.52067" lon="5.50817">
        <ele>1334.39</ele>
        <time>2018-05-23T08:36:47.000Z</time>
      </trkpt>
      <trkpt lat="44.5206" lon="5.50828">
        <ele>1334.7</ele>
        <time>2018-05-23T08:37:02.000Z</time>
      </trkpt>
      <trkpt lat="44.52051" lon="5.50834">
        <ele>1334.5</ele>
        <time>2018-05-23T08:37:12.000Z</time>
      </trkpt>
      <trkpt lat="44.52045" lon="5.50843">
        <ele>1334.38</ele>
        <time>2018-05-23T08:37:26.000Z</time>
      </trkpt>
      <trkpt lat="44.52039" lon="5.50832">
        <ele>1333.31</ele>
        <time>2018-05-23T08:37:50.000Z</time>
      </trkpt>
      <trkpt lat="44.52033" lon="5.50846">
        <ele>1333.54</ele>
        <time>2018-05-23T08:38:00.000Z</time>
      </trkpt>
      <trkpt lat="44.52027" lon="5.50857">
        <ele>1333.38</ele>
        <time>2018-05-23T08:38:25.000Z</time>
      </trkpt>
      <trkpt lat="44.5202" lon="5.50865">
        <ele>1333.13</ele>
        <time>2018-05-23T08:38:39.000Z</time>
      </trkpt>
      <trkpt lat="44.52022" lon="5.50881">
        <ele>1333.81</ele>
        <time>2018-05-23T08:38:49.000Z</time>
      </trkpt>
      <trkpt lat="44.52011" lon="5.509">
        <ele>1334.18</ele>
        <time>2018-05-23T08:38:59.000Z</time>
      </trkpt>
      <trkpt lat="44.52003" lon="5.50919">
        <ele>1335.29</ele>
        <time>2018-05-23T08:39:09.000Z</time>
      </trkpt>
      <trkpt lat="44.52006" lon="5.50931">
        <ele>1336.05</ele>
        <time>2018-05-23T08:39:28.000Z</time>
      </trkpt>
      <trkpt lat="44.52" lon="5.50942">
        <ele>1336.84</ele>
        <time>2018-05-23T08:39:55.000Z</time>
      </trkpt>
      <trkpt lat="44.5199" lon="5.50958">
        <ele>1338.31</ele>
        <time>2018-05-23T08:40:05.000Z</time>
      </trkpt>
      <trkpt lat="44.51975" lon="5.50963">
        <ele>1338.97</ele>
        <time>2018-05-23T08:40:15.000Z</time>
      </trkpt>
      <trkpt lat="44.51966" lon="5.50971">
        <ele>1339.97</ele>
        <time>2018-05-23T08:40:28.000Z</time>
      </trkpt>
      <trkpt lat="44.51962" lon="5.50982">
        <ele>1341.88</ele>
        <time>2018-05-23T08:40:42.000Z</time>
      </trkpt>
      <trkpt lat="44.51966" lon="5.50998">
        <ele>1344.46</ele>
        <time>2018-05-23T08:40:53.000Z</time>
      </trkpt>
      <trkpt lat="44.51965" lon="5.51011">
        <ele>1346.9</ele>
        <time>2018-05-23T08:41:07.000Z</time>
      </trkpt>
      <trkpt lat="44.51969" lon="5.51025">
        <ele>1348.64</ele>
        <time>2018-05-23T08:41:17.000Z</time>
      </trkpt>
      <trkpt lat="44.51965" lon="5.51037">
        <ele>1351.22</ele>
        <time>2018-05-23T08:41:37.000Z</time>
      </trkpt>
      <trkpt lat="44.51971" lon="5.51047">
        <ele>1352.1</ele>
        <time>2018-05-23T08:42:18.000Z</time>
      </trkpt>
      <trkpt lat="44.51971" lon="5.51062">
        <ele>1354.86</ele>
        <time>2018-05-23T08:42:58.000Z</time>
      </trkpt>
      <trkpt lat="44.51968" lon="5.5108">
        <ele>1358.99</ele>
        <time>2018-05-23T08:43:08.000Z</time>
      </trkpt>
      <trkpt lat="44.51964" lon="5.51092">
        <ele>1363.51</ele>
        <time>2018-05-23T08:43:18.000Z</time>
      </trkpt>
      <trkpt lat="44.51958" lon="5.51102">
        <ele>1368.27</ele>
        <time>2018-05-23T08:44:21.000Z</time>
      </trkpt>
      <trkpt lat="44.51947" lon="5.51103">
        <ele>1371.56</ele>
        <time>2018-05-23T08:44:31.000Z</time>
      </trkpt>
      <trkpt lat="44.51937" lon="5.51104">
        <ele>1374.46</ele>
        <time>2018-05-23T08:45:13.000Z</time>
      </trkpt>
      <trkpt lat="44.51931" lon="5.51113">
        <ele>1379.57</ele>
        <time>2018-05-23T08:50:57.000Z</time>
      </trkpt>
      <trkpt lat="44.51934" lon="5.51125">
        <ele>1384.09</ele>
        <time>2018-05-23T08:52:40.000Z</time>
      </trkpt>
      <trkpt lat="44.51927" lon="5.51144">
        <ele>1394.68</ele>
        <time>2018-05-23T08:52:50.000Z</time>
      </trkpt>
      <trkpt lat="44.5192" lon="5.51153">
        <ele>1400.47</ele>
        <time>2018-05-23T08:54:15.000Z</time>
      </trkpt>
      <trkpt lat="44.51917" lon="5.51171">
        <ele>1408.69</ele>
        <time>2018-05-23T08:57:58.000Z</time>
      </trkpt>
      <trkpt lat="44.51914" lon="5.51192">
        <ele>1417.12</ele>
        <time>2018-05-23T08:58:08.000Z</time>
      </trkpt>
      <trkpt lat="44.51906" lon="5.512">
        <ele>1421.87</ele>
        <time>2018-05-23T09:01:22.000Z</time>
      </trkpt>
      <trkpt lat="44.51891" lon="5.51211">
        <ele>1428.14</ele>
        <time>2018-05-23T09:01:32.000Z</time>
      </trkpt>
      <trkpt lat="44.5189" lon="5.51225">
        <ele>1433.35</ele>
        <time>2018-05-23T09:01:43.000Z</time>
      </trkpt>
      <trkpt lat="44.51887" lon="5.51212">
        <ele>1429.16</ele>
        <time>2018-05-23T09:01:53.000Z</time>
      </trkpt>
      <trkpt lat="44.51883" lon="5.51224">
        <ele>1433.63</ele>
        <time>2018-05-23T09:04:17.000Z</time>
      </trkpt>
      <trkpt lat="44.51881" lon="5.51237">
        <ele>1438.74</ele>
        <time>2018-05-23T09:04:27.000Z</time>
      </trkpt>
      <trkpt lat="44.51875" lon="5.51248">
        <ele>1442.69</ele>
        <time>2018-05-23T09:06:05.000Z</time>
      </trkpt>
      <trkpt lat="44.51866" lon="5.51255">
        <ele>1445.15</ele>
        <time>2018-05-23T09:06:48.000Z</time>
      </trkpt>
      <trkpt lat="44.51859" lon="5.51263">
        <ele>1447.71</ele>
        <time>2018-05-23T09:10:23.000Z</time>
      </trkpt>
      <trkpt lat="44.51861" lon="5.51278">
        <ele>1452.25</ele>
        <time>2018-05-23T09:10:44.000Z</time>
      </trkpt>
      <trkpt lat="44.51867" lon="5.51287">
        <ele>1455.12</ele>
        <time>2018-05-23T09:11:29.000Z</time>
      </trkpt>
      <trkpt lat="44.51864" lon="5.513">
        <ele>1458.65</ele>
        <time>2018-05-23T09:11:43.000Z</time>
      </trkpt>
      <trkpt lat="44.51867" lon="5.51313">
        <ele>1462.02</ele>
        <time>2018-05-23T09:11:57.000Z</time>
      </trkpt>
      <trkpt lat="44.5187" lon="5.51325">
        <ele>1465.15</ele>
        <time>2018-05-23T09:12:32.000Z</time>
      </trkpt>
      <trkpt lat="44.51871" lon="5.51338">
        <ele>1468.54</ele>
        <time>2018-05-23T09:13:03.000Z</time>
      </trkpt>
      <trkpt lat="44.51872" lon="5.51352">
        <ele>1472.11</ele>
        <time>2018-05-23T09:13:50.000Z</time>
      </trkpt>
      <trkpt lat="44.51879" lon="5.51361">
        <ele>1474.23</ele>
        <time>2018-05-23T09:14:15.000Z</time>
      </trkpt>
      <trkpt lat="44.51878" lon="5.51381">
        <ele>1479.58</ele>
        <time>2018-05-23T09:14:51.000Z</time>
      </trkpt>
      <trkpt lat="44.51888" lon="5.51383">
        <ele>1479.67</ele>
        <time>2018-05-23T09:15:03.000Z</time>
      </trkpt>
      <trkpt lat="44.51894" lon="5.51394">
        <ele>1481.89</ele>
        <time>2018-05-23T09:15:17.000Z</time>
      </trkpt>
      <trkpt lat="44.51897" lon="5.51405">
        <ele>1484.63</ele>
        <time>2018-05-23T09:15:40.000Z</time>
      </trkpt>
      <trkpt lat="44.519" lon="5.51417">
        <ele>1487.43</ele>
        <time>2018-05-23T09:16:00.000Z</time>
      </trkpt>
      <trkpt lat="44.51904" lon="5.5143">
        <ele>1489.88</ele>
        <time>2018-05-23T09:16:34.000Z</time>
      </trkpt>
      <trkpt lat="44.51912" lon="5.51439">
        <ele>1490.57</ele>
        <time>2018-05-23T09:16:44.000Z</time>
      </trkpt>
      <trkpt lat="44.51916" lon="5.51451">
        <ele>1493.1</ele>
        <time>2018-05-23T09:17:02.000Z</time>
      </trkpt>
      <trkpt lat="44.51919" lon="5.51463">
        <ele>1495.13</ele>
        <time>2018-05-23T09:17:17.000Z</time>
      </trkpt>
      <trkpt lat="44.51927" lon="5.5147">
        <ele>1493.92</ele>
        <time>2018-05-23T09:17:42.000Z</time>
      </trkpt>
      <trkpt lat="44.51936" lon="5.51474">
        <ele>1490.33</ele>
        <time>2018-05-23T09:18:00.000Z</time>
      </trkpt>
      <trkpt lat="44.51945" lon="5.5148">
        <ele>1486.26</ele>
        <time>2018-05-23T09:18:16.000Z</time>
      </trkpt>
      <trkpt lat="44.51947" lon="5.51493">
        <ele>1488.72</ele>
        <time>2018-05-23T09:18:35.000Z</time>
      </trkpt>
      <trkpt lat="44.51947" lon="5.51506">
        <ele>1492.29</ele>
        <time>2018-05-23T09:18:50.000Z</time>
      </trkpt>
      <trkpt lat="44.51947" lon="5.51519">
        <ele>1496.02</ele>
        <time>2018-05-23T09:19:03.000Z</time>
      </trkpt>
      <trkpt lat="44.51949" lon="5.51532">
        <ele>1498.17</ele>
        <time>2018-05-23T09:19:18.000Z</time>
      </trkpt>
      <trkpt lat="44.51952" lon="5.51546">
        <ele>1500.08</ele>
        <time>2018-05-23T09:19:50.000Z</time>
      </trkpt>
      <trkpt lat="44.51953" lon="5.51559">
        <ele>1502.52</ele>
        <time>2018-05-23T09:20:05.000Z</time>
      </trkpt>
      <trkpt lat="44.51956" lon="5.51573">
        <ele>1504.25</ele>
        <time>2018-05-23T09:20:16.000Z</time>
      </trkpt>
      <trkpt lat="44.5196" lon="5.51584">
        <ele>1504.29</ele>
        <time>2018-05-23T09:20:28.000Z</time>
      </trkpt>
      <trkpt lat="44.51968" lon="5.51591">
        <ele>1501.64</ele>
        <time>2018-05-23T09:20:40.000Z</time>
      </trkpt>
      <trkpt lat="44.51977" lon="5.51595">
        <ele>1497.86</ele>
        <time>2018-05-23T09:20:52.000Z</time>
      </trkpt>
      <trkpt lat="44.51983" lon="5.51605">
        <ele>1496.86</ele>
        <time>2018-05-23T09:21:20.000Z</time>
      </trkpt>
      <trkpt lat="44.51988" lon="5.51618">
        <ele>1497.7</ele>
        <time>2018-05-23T09:22:43.000Z</time>
      </trkpt>
      <trkpt lat="44.51987" lon="5.51631">
        <ele>1501.36</ele>
        <time>2018-05-23T09:22:54.000Z</time>
      </trkpt>
      <trkpt lat="44.51983" lon="5.51643">
        <ele>1505.61</ele>
        <time>2018-05-23T09:24:35.000Z</time>
      </trkpt>
      <trkpt lat="44.51991" lon="5.51651">
        <ele>1504.02</ele>
        <time>2018-05-23T09:25:04.000Z</time>
      </trkpt>
      <trkpt lat="44.51996" lon="5.51664">
        <ele>1504.47</ele>
        <time>2018-05-23T09:25:30.000Z</time>
      </trkpt>
      <trkpt lat="44.51998" lon="5.51676">
        <ele>1504.96</ele>
        <time>2018-05-23T09:26:03.000Z</time>
      </trkpt>
      <trkpt lat="44.52006" lon="5.51685">
        <ele>1502.49</ele>
        <time>2018-05-23T09:31:04.000Z</time>
      </trkpt>
      <trkpt lat="44.5201" lon="5.51696">
        <ele>1501.21</ele>
        <time>2018-05-23T09:31:14.000Z</time>
      </trkpt>
      <trkpt lat="44.52011" lon="5.51709">
        <ele>1501.65</ele>
        <time>2018-05-23T09:31:27.000Z</time>
      </trkpt>
      <trkpt lat="44.52002" lon="5.51711">
        <ele>1505.38</ele>
        <time>2018-05-23T09:32:11.000Z</time>
      </trkpt>
      <trkpt lat="44.5201" lon="5.51716">
        <ele>1502.18</ele>
        <time>2018-05-23T09:33:53.000Z</time>
      </trkpt>
      <trkpt lat="44.52017" lon="5.51725">
        <ele>1499.11</ele>
        <time>2018-05-23T09:34:22.000Z</time>
      </trkpt>
      <trkpt lat="44.52022" lon="5.51736">
        <ele>1496.87</ele>
        <time>2018-05-23T09:34:46.000Z</time>
      </trkpt>
      <trkpt lat="44.52022" lon="5.51749">
        <ele>1496.7</ele>
        <time>2018-05-23T09:36:05.000Z</time>
      </trkpt>
      <trkpt lat="44.52031" lon="5.51754">
        <ele>1492.67</ele>
        <time>2018-05-23T09:36:37.000Z</time>
      </trkpt>
      <trkpt lat="44.52038" lon="5.51763">
        <ele>1489.12</ele>
        <time>2018-05-23T09:36:51.000Z</time>
      </trkpt>
      <trkpt lat="44.52041" lon="5.51776">
        <ele>1487.38</ele>
        <time>2018-05-23T09:37:21.000Z</time>
      </trkpt>
      <trkpt lat="44.52048" lon="5.51785">
        <ele>1484.42</ele>
        <time>2018-05-23T09:37:34.000Z</time>
      </trkpt>
      <trkpt lat="44.52055" lon="5.51792">
        <ele>1481.39</ele>
        <time>2018-05-23T09:37:47.000Z</time>
      </trkpt>
      <trkpt lat="44.52062" lon="5.51803">
        <ele>1479.07</ele>
        <time>2018-05-23T09:37:57.000Z</time>
      </trkpt>
      <trkpt lat="44.52068" lon="5.51814">
        <ele>1477.42</ele>
        <time>2018-05-23T09:38:28.000Z</time>
      </trkpt>
      <trkpt lat="44.52074" lon="5.51828">
        <ele>1475.8</ele>
        <time>2018-05-23T09:38:38.000Z</time>
      </trkpt>
      <trkpt lat="44.5208" lon="5.5184">
        <ele>1474.53</ele>
        <time>2018-05-23T09:38:48.000Z</time>
      </trkpt>
      <trkpt lat="44.52087" lon="5.5185">
        <ele>1473.13</ele>
        <time>2018-05-23T09:39:06.000Z</time>
      </trkpt>
      <trkpt lat="44.52094" lon="5.51859">
        <ele>1471.44</ele>
        <time>2018-05-23T09:39:17.000Z</time>
      </trkpt>
      <trkpt lat="44.52104" lon="5.51856">
        <ele>1467.27</ele>
        <time>2018-05-23T09:39:43.000Z</time>
      </trkpt>
      <trkpt lat="44.52102" lon="5.51869">
        <ele>1469.35</ele>
        <time>2018-05-23T09:40:18.000Z</time>
      </trkpt>
      <trkpt lat="44.52109" lon="5.51878">
        <ele>1467.28</ele>
        <time>2018-05-23T09:40:35.000Z</time>
      </trkpt>
      <trkpt lat="44.52117" lon="5.51886">
        <ele>1465.03</ele>
        <time>2018-05-23T09:40:52.000Z</time>
      </trkpt>
      <trkpt lat="44.52126" lon="5.5189">
        <ele>1461.43</ele>
        <time>2018-05-23T09:41:05.000Z</time>
      </trkpt>
      <trkpt lat="44.52133" lon="5.51898">
        <ele>1459.47</ele>
        <time>2018-05-23T09:41:19.000Z</time>
      </trkpt>
      <trkpt lat="44.52139" lon="5.51909">
        <ele>1458.25</ele>
        <time>2018-05-23T09:41:29.000Z</time>
      </trkpt>
      <trkpt lat="44.52147" lon="5.5192">
        <ele>1456.01</ele>
        <time>2018-05-23T09:41:39.000Z</time>
      </trkpt>
      <trkpt lat="44.52154" lon="5.51929">
        <ele>1453.86</ele>
        <time>2018-05-23T09:41:53.000Z</time>
      </trkpt>
      <trkpt lat="44.5216" lon="5.5194">
        <ele>1452.12</ele>
        <time>2018-05-23T09:42:03.000Z</time>
      </trkpt>
      <trkpt lat="44.52167" lon="5.51949">
        <ele>1450</ele>
        <time>2018-05-23T09:42:13.000Z</time>
      </trkpt>
      <trkpt lat="44.52181" lon="5.51979">
        <ele>1446.6</ele>
        <time>2018-05-23T09:42:41.000Z</time>
      </trkpt>
      <trkpt lat="44.5219" lon="5.51989">
        <ele>1443.92</ele>
        <time>2018-05-23T09:42:51.000Z</time>
      </trkpt>
      <trkpt lat="44.52198" lon="5.51999">
        <ele>1441.56</ele>
        <time>2018-05-23T09:43:01.000Z</time>
      </trkpt>
      <trkpt lat="44.52206" lon="5.52007">
        <ele>1439.07</ele>
        <time>2018-05-23T09:43:13.000Z</time>
      </trkpt>
      <trkpt lat="44.52212" lon="5.52016">
        <ele>1437.23</ele>
        <time>2018-05-23T09:43:24.000Z</time>
      </trkpt>
      <trkpt lat="44.52218" lon="5.52026">
        <ele>1435.72</ele>
        <time>2018-05-23T09:43:34.000Z</time>
      </trkpt>
      <trkpt lat="44.52225" lon="5.5204">
        <ele>1434.34</ele>
        <time>2018-05-23T09:44:03.000Z</time>
      </trkpt>
      <trkpt lat="44.52236" lon="5.52056">
        <ele>1432.23</ele>
        <time>2018-05-23T09:44:13.000Z</time>
      </trkpt>
      <trkpt lat="44.52238" lon="5.5207">
        <ele>1432.25</ele>
        <time>2018-05-23T09:44:39.000Z</time>
      </trkpt>
      <trkpt lat="44.52273" lon="5.52093">
        <ele>1424.91</ele>
        <time>2018-05-23T09:45:14.000Z</time>
      </trkpt>
      <trkpt lat="44.52264" lon="5.52094">
        <ele>1427.43</ele>
        <time>2018-05-23T09:45:24.000Z</time>
      </trkpt>
      <trkpt lat="44.52269" lon="5.52106">
        <ele>1427</ele>
        <time>2018-05-23T09:46:43.000Z</time>
      </trkpt>
      <trkpt lat="44.52277" lon="5.52116">
        <ele>1426.32</ele>
        <time>2018-05-23T09:46:53.000Z</time>
      </trkpt>
      <trkpt lat="44.52284" lon="5.52128">
        <ele>1426.38</ele>
        <time>2018-05-23T09:47:03.000Z</time>
      </trkpt>
      <trkpt lat="44.5229" lon="5.52138">
        <ele>1426.85</ele>
        <time>2018-05-23T09:47:37.000Z</time>
      </trkpt>
      <trkpt lat="44.52297" lon="5.52146">
        <ele>1427.12</ele>
        <time>2018-05-23T09:47:51.000Z</time>
      </trkpt>
      <trkpt lat="44.52304" lon="5.52154">
        <ele>1427.84</ele>
        <time>2018-05-23T09:48:11.000Z</time>
      </trkpt>
      <trkpt lat="44.52311" lon="5.52163">
        <ele>1428.97</ele>
        <time>2018-05-23T09:48:33.000Z</time>
      </trkpt>
      <trkpt lat="44.52317" lon="5.52173">
        <ele>1430.21</ele>
        <time>2018-05-23T09:48:52.000Z</time>
      </trkpt>
      <trkpt lat="44.52325" lon="5.52178">
        <ele>1430.59</ele>
        <time>2018-05-23T09:49:14.000Z</time>
      </trkpt>
      <trkpt lat="44.52334" lon="5.52186">
        <ele>1430.97</ele>
        <time>2018-05-23T09:49:41.000Z</time>
      </trkpt>
      <trkpt lat="44.5234" lon="5.52195">
        <ele>1431.97</ele>
        <time>2018-05-23T09:50:03.000Z</time>
      </trkpt>
      <trkpt lat="44.52346" lon="5.52205">
        <ele>1432.71</ele>
        <time>2018-05-23T09:50:23.000Z</time>
      </trkpt>
      <trkpt lat="44.52344" lon="5.52217">
        <ele>1435.58</ele>
        <time>2018-05-23T09:51:28.000Z</time>
      </trkpt>
      <trkpt lat="44.52347" lon="5.5223">
        <ele>1437.39</ele>
        <time>2018-05-23T09:51:39.000Z</time>
      </trkpt>
      <trkpt lat="44.52351" lon="5.52243">
        <ele>1439.04</ele>
        <time>2018-05-23T09:51:49.000Z</time>
      </trkpt>
      <trkpt lat="44.52354" lon="5.52254">
        <ele>1440.45</ele>
        <time>2018-05-23T09:52:00.000Z</time>
      </trkpt>
      <trkpt lat="44.52356" lon="5.52267">
        <ele>1442.45</ele>
        <time>2018-05-23T09:52:22.000Z</time>
      </trkpt>
      <trkpt lat="44.52364" lon="5.52275">
        <ele>1442.95</ele>
        <time>2018-05-23T09:52:56.000Z</time>
      </trkpt>
      <trkpt lat="44.52371" lon="5.52284">
        <ele>1443.76</ele>
        <time>2018-05-23T09:53:59.000Z</time>
      </trkpt>
      <trkpt lat="44.52376" lon="5.52294">
        <ele>1445.54</ele>
        <time>2018-05-23T09:54:22.000Z</time>
      </trkpt>
      <trkpt lat="44.52382" lon="5.52303">
        <ele>1446.87</ele>
        <time>2018-05-23T09:55:08.000Z</time>
      </trkpt>
      <trkpt lat="44.52389" lon="5.52312">
        <ele>1448.39</ele>
        <time>2018-05-23T09:55:22.000Z</time>
      </trkpt>
      <trkpt lat="44.52394" lon="5.52323">
        <ele>1450.38</ele>
        <time>2018-05-23T09:55:36.000Z</time>
      </trkpt>
      <trkpt lat="44.52401" lon="5.52332">
        <ele>1451.63</ele>
        <time>2018-05-23T09:55:47.000Z</time>
      </trkpt>
      <trkpt lat="44.52406" lon="5.52342">
        <ele>1452.73</ele>
        <time>2018-05-23T09:56:01.000Z</time>
      </trkpt>
      <trkpt lat="44.52414" lon="5.52349">
        <ele>1452.81</ele>
        <time>2018-05-23T09:56:15.000Z</time>
      </trkpt>
      <trkpt lat="44.52422" lon="5.52355">
        <ele>1451.73</ele>
        <time>2018-05-23T09:56:32.000Z</time>
      </trkpt>
      <trkpt lat="44.52431" lon="5.52358">
        <ele>1449.02</ele>
        <time>2018-05-23T09:56:47.000Z</time>
      </trkpt>
      <trkpt lat="44.52441" lon="5.52358">
        <ele>1444.83</ele>
        <time>2018-05-23T09:57:03.000Z</time>
      </trkpt>
      <trkpt lat="44.52448" lon="5.52366">
        <ele>1442.23</ele>
        <time>2018-05-23T09:57:17.000Z</time>
      </trkpt>
      <trkpt lat="44.52455" lon="5.52376">
        <ele>1440.19</ele>
        <time>2018-05-23T09:57:31.000Z</time>
      </trkpt>
      <trkpt lat="44.52466" lon="5.52376">
        <ele>1433.87</ele>
        <time>2018-05-23T09:58:04.000Z</time>
      </trkpt>
      <trkpt lat="44.52463" lon="5.52388">
        <ele>1437.61</ele>
        <time>2018-05-23T09:58:33.000Z</time>
      </trkpt>
      <trkpt lat="44.5246" lon="5.52401">
        <ele>1440.81</ele>
        <time>2018-05-23T09:59:58.000Z</time>
      </trkpt>
      <trkpt lat="44.52468" lon="5.52408">
        <ele>1437.28</ele>
        <time>2018-05-23T10:00:23.000Z</time>
      </trkpt>
      <trkpt lat="44.52469" lon="5.52421">
        <ele>1438.23</ele>
        <time>2018-05-23T10:01:19.000Z</time>
      </trkpt>
      <trkpt lat="44.5247" lon="5.52433">
        <ele>1439.56</ele>
        <time>2018-05-23T10:01:59.000Z</time>
      </trkpt>
      <trkpt lat="44.52469" lon="5.52447">
        <ele>1441.67</ele>
        <time>2018-05-23T10:02:56.000Z</time>
      </trkpt>
      <trkpt lat="44.52468" lon="5.52462">
        <ele>1443.16</ele>
        <time>2018-05-23T10:03:18.000Z</time>
      </trkpt>
      <trkpt lat="44.52475" lon="5.52471">
        <ele>1441.42</ele>
        <time>2018-05-23T10:04:31.000Z</time>
      </trkpt>
      <trkpt lat="44.5248" lon="5.52482">
        <ele>1440.41</ele>
        <time>2018-05-23T10:05:02.000Z</time>
      </trkpt>
      <trkpt lat="44.52484" lon="5.52494">
        <ele>1439.97</ele>
        <time>2018-05-23T10:06:16.000Z</time>
      </trkpt>
      <trkpt lat="44.52488" lon="5.52506">
        <ele>1439.06</ele>
        <time>2018-05-23T10:06:29.000Z</time>
      </trkpt>
      <trkpt lat="44.52493" lon="5.52518">
        <ele>1437.56</ele>
        <time>2018-05-23T10:06:39.000Z</time>
      </trkpt>
      <trkpt lat="44.52504" lon="5.52529">
        <ele>1434.56</ele>
        <time>2018-05-23T10:06:49.000Z</time>
      </trkpt>
      <trkpt lat="44.5251" lon="5.5254">
        <ele>1432.87</ele>
        <time>2018-05-23T10:06:59.000Z</time>
      </trkpt>
      <trkpt lat="44.52516" lon="5.52558">
        <ele>1431.14</ele>
        <time>2018-05-23T10:07:09.000Z</time>
      </trkpt>
      <trkpt lat="44.52527" lon="5.52569">
        <ele>1428.77</ele>
        <time>2018-05-23T10:07:19.000Z</time>
      </trkpt>
      <trkpt lat="44.52535" lon="5.52575">
        <ele>1427.3</ele>
        <time>2018-05-23T10:07:30.000Z</time>
      </trkpt>
      <trkpt lat="44.52546" lon="5.52585">
        <ele>1425.4</ele>
        <time>2018-05-23T10:07:40.000Z</time>
      </trkpt>
      <trkpt lat="44.5256" lon="5.52581">
        <ele>1421.71</ele>
        <time>2018-05-23T10:07:54.000Z</time>
      </trkpt>
      <trkpt lat="44.52563" lon="5.52602">
        <ele>1422.93</ele>
        <time>2018-05-23T10:08:04.000Z</time>
      </trkpt>
      <trkpt lat="44.52572" lon="5.526">
        <ele>1420.51</ele>
        <time>2018-05-23T10:08:16.000Z</time>
      </trkpt>
      <trkpt lat="44.52583" lon="5.52605">
        <ele>1417.63</ele>
        <time>2018-05-23T10:08:26.000Z</time>
      </trkpt>
      <trkpt lat="44.52592" lon="5.52612">
        <ele>1415.35</ele>
        <time>2018-05-23T10:08:40.000Z</time>
      </trkpt>
      <trkpt lat="44.52598" lon="5.52623">
        <ele>1414.52</ele>
        <time>2018-05-23T10:08:52.000Z</time>
      </trkpt>
      <trkpt lat="44.52604" lon="5.52632">
        <ele>1412.98</ele>
        <time>2018-05-23T10:09:09.000Z</time>
      </trkpt>
      <trkpt lat="44.52612" lon="5.52639">
        <ele>1410.61</ele>
        <time>2018-05-23T10:09:28.000Z</time>
      </trkpt>
      <trkpt lat="44.52621" lon="5.52644">
        <ele>1406.74</ele>
        <time>2018-05-23T10:29:45.000Z</time>
      </trkpt>
      <trkpt lat="44.52625" lon="5.52655">
        <ele>1406.65</ele>
        <time>2018-05-23T10:49:06.000Z</time>
      </trkpt>
      <trkpt lat="44.52632" lon="5.52665">
        <ele>1405.16</ele>
        <time>2018-05-23T10:49:17.000Z</time>
      </trkpt>
      <trkpt lat="44.52638" lon="5.52675">
        <ele>1403.47</ele>
        <time>2018-05-23T10:49:28.000Z</time>
      </trkpt>
      <trkpt lat="44.52645" lon="5.52684">
        <ele>1401.65</ele>
        <time>2018-05-23T10:49:40.000Z</time>
      </trkpt>
      <trkpt lat="44.52653" lon="5.52691">
        <ele>1398.71</ele>
        <time>2018-05-23T10:49:50.000Z</time>
      </trkpt>
      <trkpt lat="44.52659" lon="5.52703">
        <ele>1397.68</ele>
        <time>2018-05-23T10:50:00.000Z</time>
      </trkpt>
      <trkpt lat="44.52662" lon="5.52715">
        <ele>1397.76</ele>
        <time>2018-05-23T10:50:10.000Z</time>
      </trkpt>
      <trkpt lat="44.52661" lon="5.52728">
        <ele>1399.36</ele>
        <time>2018-05-23T10:50:27.000Z</time>
      </trkpt>
      <trkpt lat="44.5266" lon="5.52742">
        <ele>1400.03</ele>
        <time>2018-05-23T10:50:37.000Z</time>
      </trkpt>
      <trkpt lat="44.52665" lon="5.52753">
        <ele>1398.54</ele>
        <time>2018-05-23T10:50:50.000Z</time>
      </trkpt>
      <trkpt lat="44.52668" lon="5.52766">
        <ele>1397.07</ele>
        <time>2018-05-23T10:51:01.000Z</time>
      </trkpt>
      <trkpt lat="44.52671" lon="5.52778">
        <ele>1395.03</ele>
        <time>2018-05-23T10:51:12.000Z</time>
      </trkpt>
      <trkpt lat="44.52675" lon="5.52792">
        <ele>1392.29</ele>
        <time>2018-05-23T10:51:23.000Z</time>
      </trkpt>
      <trkpt lat="44.52676" lon="5.52806">
        <ele>1390</ele>
        <time>2018-05-23T10:51:34.000Z</time>
      </trkpt>
      <trkpt lat="44.52674" lon="5.52818">
        <ele>1389.13</ele>
        <time>2018-05-23T10:51:48.000Z</time>
      </trkpt>
      <trkpt lat="44.52676" lon="5.52831">
        <ele>1386.67</ele>
        <time>2018-05-23T10:51:58.000Z</time>
      </trkpt>
      <trkpt lat="44.52677" lon="5.52845">
        <ele>1384.57</ele>
        <time>2018-05-23T10:52:09.000Z</time>
      </trkpt>
      <trkpt lat="44.52679" lon="5.52859">
        <ele>1382.16</ele>
        <time>2018-05-23T10:52:20.000Z</time>
      </trkpt>
      <trkpt lat="44.52678" lon="5.52875">
        <ele>1380.07</ele>
        <time>2018-05-23T10:52:30.000Z</time>
      </trkpt>
      <trkpt lat="44.52681" lon="5.52892">
        <ele>1376.69</ele>
        <time>2018-05-23T10:52:40.000Z</time>
      </trkpt>
      <trkpt lat="44.52681" lon="5.52907">
        <ele>1374.83</ele>
        <time>2018-05-23T10:52:50.000Z</time>
      </trkpt>
      <trkpt lat="44.52683" lon="5.52921">
        <ele>1372.85</ele>
        <time>2018-05-23T10:53:00.000Z</time>
      </trkpt>
      <trkpt lat="44.52683" lon="5.52935">
        <ele>1371.58</ele>
        <time>2018-05-23T10:53:10.000Z</time>
      </trkpt>
      <trkpt lat="44.52684" lon="5.52949">
        <ele>1370.5</ele>
        <time>2018-05-23T10:53:20.000Z</time>
      </trkpt>
      <trkpt lat="44.52684" lon="5.52962">
        <ele>1369.7</ele>
        <time>2018-05-23T10:53:32.000Z</time>
      </trkpt>
      <trkpt lat="44.52688" lon="5.5298">
        <ele>1367.97</ele>
        <time>2018-05-23T10:53:42.000Z</time>
      </trkpt>
      <trkpt lat="44.52693" lon="5.52995">
        <ele>1366.22</ele>
        <time>2018-05-23T10:53:52.000Z</time>
      </trkpt>
      <trkpt lat="44.52696" lon="5.53008">
        <ele>1365.01</ele>
        <time>2018-05-23T10:54:02.000Z</time>
      </trkpt>
      <trkpt lat="44.52694" lon="5.53021">
        <ele>1365</ele>
        <time>2018-05-23T10:54:13.000Z</time>
      </trkpt>
      <trkpt lat="44.52694" lon="5.53038">
        <ele>1364.33</ele>
        <time>2018-05-23T10:54:23.000Z</time>
      </trkpt>
      <trkpt lat="44.52695" lon="5.53051">
        <ele>1363.8</ele>
        <time>2018-05-23T10:54:33.000Z</time>
      </trkpt>
      <trkpt lat="44.52694" lon="5.53064">
        <ele>1363.41</ele>
        <time>2018-05-23T10:54:43.000Z</time>
      </trkpt>
      <trkpt lat="44.52695" lon="5.53076">
        <ele>1362.39</ele>
        <time>2018-05-23T10:54:59.000Z</time>
      </trkpt>
      <trkpt lat="44.52694" lon="5.53091">
        <ele>1361.54</ele>
        <time>2018-05-23T10:55:09.000Z</time>
      </trkpt>
      <trkpt lat="44.52695" lon="5.53105">
        <ele>1360.06</ele>
        <time>2018-05-23T10:55:19.000Z</time>
      </trkpt>
      <trkpt lat="44.52697" lon="5.53117">
        <ele>1358.52</ele>
        <time>2018-05-23T10:55:31.000Z</time>
      </trkpt>
      <trkpt lat="44.52692" lon="5.53128">
        <ele>1357.83</ele>
        <time>2018-05-23T10:55:44.000Z</time>
      </trkpt>
      <trkpt lat="44.52683" lon="5.53134">
        <ele>1357.42</ele>
        <time>2018-05-23T10:55:59.000Z</time>
      </trkpt>
      <trkpt lat="44.52685" lon="5.53151">
        <ele>1355.07</ele>
        <time>2018-05-23T10:56:09.000Z</time>
      </trkpt>
      <trkpt lat="44.5268" lon="5.53163">
        <ele>1353.25</ele>
        <time>2018-05-23T10:56:19.000Z</time>
      </trkpt>
      <trkpt lat="44.52678" lon="5.53176">
        <ele>1351.32</ele>
        <time>2018-05-23T10:56:31.000Z</time>
      </trkpt>
      <trkpt lat="44.52676" lon="5.53188">
        <ele>1349.23</ele>
        <time>2018-05-23T10:56:45.000Z</time>
      </trkpt>
      <trkpt lat="44.52673" lon="5.53203">
        <ele>1346.53</ele>
        <time>2018-05-23T10:56:55.000Z</time>
      </trkpt>
      <trkpt lat="44.52676" lon="5.53215">
        <ele>1344.69</ele>
        <time>2018-05-23T10:57:05.000Z</time>
      </trkpt>
      <trkpt lat="44.52681" lon="5.53225">
        <ele>1343.49</ele>
        <time>2018-05-23T10:59:45.000Z</time>
      </trkpt>
      <trkpt lat="44.52682" lon="5.5324">
        <ele>1341.25</ele>
        <time>2018-05-23T11:00:43.000Z</time>
      </trkpt>
      <trkpt lat="44.5268" lon="5.53253">
        <ele>1339.19</ele>
        <time>2018-05-23T11:00:59.000Z</time>
      </trkpt>
      <trkpt lat="44.52675" lon="5.53264">
        <ele>1336.96</ele>
        <time>2018-05-23T11:02:03.000Z</time>
      </trkpt>
      <trkpt lat="44.52682" lon="5.53278">
        <ele>1335.76</ele>
        <time>2018-05-23T11:02:13.000Z</time>
      </trkpt>
      <trkpt lat="44.52691" lon="5.53288">
        <ele>1335.18</ele>
        <time>2018-05-23T11:02:23.000Z</time>
      </trkpt>
      <trkpt lat="44.52696" lon="5.53302">
        <ele>1333.7</ele>
        <time>2018-05-23T11:02:33.000Z</time>
      </trkpt>
      <trkpt lat="44.52699" lon="5.53319">
        <ele>1332.01</ele>
        <time>2018-05-23T11:02:43.000Z</time>
      </trkpt>
      <trkpt lat="44.52699" lon="5.53333">
        <ele>1330.59</ele>
        <time>2018-05-23T11:02:54.000Z</time>
      </trkpt>
      <trkpt lat="44.52705" lon="5.53349">
        <ele>1329.72</ele>
        <time>2018-05-23T11:03:04.000Z</time>
      </trkpt>
      <trkpt lat="44.52708" lon="5.53363">
        <ele>1328.98</ele>
        <time>2018-05-23T11:03:14.000Z</time>
      </trkpt>
      <trkpt lat="44.52707" lon="5.53377">
        <ele>1328.26</ele>
        <time>2018-05-23T11:03:25.000Z</time>
      </trkpt>
      <trkpt lat="44.52707" lon="5.5339">
        <ele>1327.55</ele>
        <time>2018-05-23T11:03:35.000Z</time>
      </trkpt>
      <trkpt lat="44.52711" lon="5.53404">
        <ele>1326.93</ele>
        <time>2018-05-23T11:03:45.000Z</time>
      </trkpt>
      <trkpt lat="44.52708" lon="5.53422">
        <ele>1325.65</ele>
        <time>2018-05-23T11:03:55.000Z</time>
      </trkpt>
      <trkpt lat="44.52704" lon="5.53434">
        <ele>1324.6</ele>
        <time>2018-05-23T11:04:05.000Z</time>
      </trkpt>
      <trkpt lat="44.52699" lon="5.53447">
        <ele>1323.47</ele>
        <time>2018-05-23T11:04:18.000Z</time>
      </trkpt>
      <trkpt lat="44.52702" lon="5.5346">
        <ele>1322.73</ele>
        <time>2018-05-23T11:04:28.000Z</time>
      </trkpt>
      <trkpt lat="44.52707" lon="5.53477">
        <ele>1321.63</ele>
        <time>2018-05-23T11:04:38.000Z</time>
      </trkpt>
      <trkpt lat="44.52703" lon="5.53489">
        <ele>1320.52</ele>
        <time>2018-05-23T11:04:49.000Z</time>
      </trkpt>
      <trkpt lat="44.5271" lon="5.53497">
        <ele>1319.75</ele>
        <time>2018-05-23T11:04:59.000Z</time>
      </trkpt>
      <trkpt lat="44.5271" lon="5.53516">
        <ele>1317.62</ele>
        <time>2018-05-23T11:05:39.000Z</time>
      </trkpt>
      <trkpt lat="44.52709" lon="5.53533">
        <ele>1315.4</ele>
        <time>2018-05-23T11:05:49.000Z</time>
      </trkpt>
      <trkpt lat="44.52696" lon="5.53552">
        <ele>1312.88</ele>
        <time>2018-05-23T11:05:59.000Z</time>
      </trkpt>
      <trkpt lat="44.52704" lon="5.53562">
        <ele>1311.53</ele>
        <time>2018-05-23T11:06:09.000Z</time>
      </trkpt>
      <trkpt lat="44.52707" lon="5.53575">
        <ele>1309.8</ele>
        <time>2018-05-23T11:06:19.000Z</time>
      </trkpt>
      <trkpt lat="44.52704" lon="5.53591">
        <ele>1307.79</ele>
        <time>2018-05-23T11:06:52.000Z</time>
      </trkpt>
      <trkpt lat="44.52707" lon="5.53609">
        <ele>1305.48</ele>
        <time>2018-05-23T11:07:02.000Z</time>
      </trkpt>
      <trkpt lat="44.52706" lon="5.53629">
        <ele>1303.06</ele>
        <time>2018-05-23T11:07:12.000Z</time>
      </trkpt>
      <trkpt lat="44.52708" lon="5.53651">
        <ele>1300.53</ele>
        <time>2018-05-23T11:07:22.000Z</time>
      </trkpt>
      <trkpt lat="44.52712" lon="5.53667">
        <ele>1298.62</ele>
        <time>2018-05-23T11:07:32.000Z</time>
      </trkpt>
      <trkpt lat="44.52712" lon="5.53682">
        <ele>1296.84</ele>
        <time>2018-05-23T11:07:42.000Z</time>
      </trkpt>
      <trkpt lat="44.52711" lon="5.53696">
        <ele>1295.28</ele>
        <time>2018-05-23T11:07:56.000Z</time>
      </trkpt>
      <trkpt lat="44.52707" lon="5.53707">
        <ele>1293.82</ele>
        <time>2018-05-23T11:08:31.000Z</time>
      </trkpt>
      <trkpt lat="44.5271" lon="5.5373">
        <ele>1291.25</ele>
        <time>2018-05-23T11:08:41.000Z</time>
      </trkpt>
      <trkpt lat="44.52712" lon="5.53744">
        <ele>1289.83</ele>
        <time>2018-05-23T11:08:51.000Z</time>
      </trkpt>
      <trkpt lat="44.52714" lon="5.53757">
        <ele>1288.44</ele>
        <time>2018-05-23T11:09:01.000Z</time>
      </trkpt>
      <trkpt lat="44.52711" lon="5.53769">
        <ele>1286.91</ele>
        <time>2018-05-23T11:09:26.000Z</time>
      </trkpt>
      <trkpt lat="44.5271" lon="5.53781">
        <ele>1285.35</ele>
        <time>2018-05-23T11:09:36.000Z</time>
      </trkpt>
      <trkpt lat="44.52713" lon="5.53795">
        <ele>1283.83</ele>
        <time>2018-05-23T11:09:47.000Z</time>
      </trkpt>
      <trkpt lat="44.52707" lon="5.53806">
        <ele>1282.38</ele>
        <time>2018-05-23T11:10:19.000Z</time>
      </trkpt>
      <trkpt lat="44.52715" lon="5.53832">
        <ele>1279.94</ele>
        <time>2018-05-23T11:10:29.000Z</time>
      </trkpt>
      <trkpt lat="44.52706" lon="5.53843">
        <ele>1278.96</ele>
        <time>2018-05-23T11:10:39.000Z</time>
      </trkpt>
      <trkpt lat="44.52709" lon="5.53856">
        <ele>1278.22</ele>
        <time>2018-05-23T11:10:49.000Z</time>
      </trkpt>
      <trkpt lat="44.52705" lon="5.53868">
        <ele>1277.37</ele>
        <time>2018-05-23T11:11:06.000Z</time>
      </trkpt>
      <trkpt lat="44.52703" lon="5.53881">
        <ele>1276.64</ele>
        <time>2018-05-23T11:11:16.000Z</time>
      </trkpt>
      <trkpt lat="44.527" lon="5.53893">
        <ele>1275.83</ele>
        <time>2018-05-23T11:11:28.000Z</time>
      </trkpt>
      <trkpt lat="44.52697" lon="5.53907">
        <ele>1274.86</ele>
        <time>2018-05-23T11:11:38.000Z</time>
      </trkpt>
      <trkpt lat="44.52691" lon="5.53917">
        <ele>1273.42</ele>
        <time>2018-05-23T11:11:50.000Z</time>
      </trkpt>
      <trkpt lat="44.52696" lon="5.53932">
        <ele>1273.28</ele>
        <time>2018-05-23T11:12:00.000Z</time>
      </trkpt>
      <trkpt lat="44.52701" lon="5.53942">
        <ele>1273.43</ele>
        <time>2018-05-23T11:12:11.000Z</time>
      </trkpt>
      <trkpt lat="44.52703" lon="5.53958">
        <ele>1272.88</ele>
        <time>2018-05-23T11:12:21.000Z</time>
      </trkpt>
      <trkpt lat="44.52711" lon="5.53971">
        <ele>1272.71</ele>
        <time>2018-05-23T11:12:31.000Z</time>
      </trkpt>
      <trkpt lat="44.52714" lon="5.53986">
        <ele>1271.93</ele>
        <time>2018-05-23T11:12:41.000Z</time>
      </trkpt>
      <trkpt lat="44.52718" lon="5.54001">
        <ele>1270.66</ele>
        <time>2018-05-23T11:13:08.000Z</time>
      </trkpt>
      <trkpt lat="44.52716" lon="5.54013">
        <ele>1268.85</ele>
        <time>2018-05-23T11:13:19.000Z</time>
      </trkpt>
      <trkpt lat="44.52719" lon="5.54027">
        <ele>1266.76</ele>
        <time>2018-05-23T11:13:30.000Z</time>
      </trkpt>
      <trkpt lat="44.52722" lon="5.54044">
        <ele>1263.99</ele>
        <time>2018-05-23T11:13:40.000Z</time>
      </trkpt>
      <trkpt lat="44.5272" lon="5.54057">
        <ele>1261.41</ele>
        <time>2018-05-23T11:14:33.000Z</time>
      </trkpt>
      <trkpt lat="44.5272" lon="5.54071">
        <ele>1259.07</ele>
        <time>2018-05-23T11:14:44.000Z</time>
      </trkpt>
      <trkpt lat="44.52724" lon="5.54086">
        <ele>1257.59</ele>
        <time>2018-05-23T11:14:54.000Z</time>
      </trkpt>
      <trkpt lat="44.52729" lon="5.54096">
        <ele>1257.39</ele>
        <time>2018-05-23T11:15:06.000Z</time>
      </trkpt>
      <trkpt lat="44.52719" lon="5.54103">
        <ele>1254.91</ele>
        <time>2018-05-23T11:15:35.000Z</time>
      </trkpt>
      <trkpt lat="44.52722" lon="5.54116">
        <ele>1254.38</ele>
        <time>2018-05-23T11:15:54.000Z</time>
      </trkpt>
      <trkpt lat="44.52728" lon="5.54126">
        <ele>1255.09</ele>
        <time>2018-05-23T11:16:05.000Z</time>
      </trkpt>
      <trkpt lat="44.52734" lon="5.54136">
        <ele>1255.47</ele>
        <time>2018-05-23T11:16:19.000Z</time>
      </trkpt>
      <trkpt lat="44.52738" lon="5.54148">
        <ele>1255.41</ele>
        <time>2018-05-23T11:17:28.000Z</time>
      </trkpt>
      <trkpt lat="44.52735" lon="5.54174">
        <ele>1253.24</ele>
        <time>2018-05-23T11:17:38.000Z</time>
      </trkpt>
      <trkpt lat="44.52744" lon="5.5418">
        <ele>1254.04</ele>
        <time>2018-05-23T11:17:48.000Z</time>
      </trkpt>
      <trkpt lat="44.52749" lon="5.5419">
        <ele>1253.8</ele>
        <time>2018-05-23T11:18:13.000Z</time>
      </trkpt>
      <trkpt lat="44.52755" lon="5.542">
        <ele>1253.23</ele>
        <time>2018-05-23T11:20:20.000Z</time>
      </trkpt>
      <trkpt lat="44.52759" lon="5.54216">
        <ele>1252.23</ele>
        <time>2018-05-23T11:23:30.000Z</time>
      </trkpt>
      <trkpt lat="44.52766" lon="5.54238">
        <ele>1250.02</ele>
        <time>2018-05-23T11:23:40.000Z</time>
      </trkpt>
      <trkpt lat="44.52779" lon="5.54248">
        <ele>1246.23</ele>
        <time>2018-05-23T11:26:31.000Z</time>
      </trkpt>
      <trkpt lat="44.52787" lon="5.5427">
        <ele>1241.71</ele>
        <time>2018-05-23T11:26:41.000Z</time>
      </trkpt>
      <trkpt lat="44.52789" lon="5.54283">
        <ele>1240.03</ele>
        <time>2018-05-23T11:27:09.000Z</time>
      </trkpt>
      <trkpt lat="44.5278" lon="5.54306">
        <ele>1240.38</ele>
        <time>2018-05-23T11:27:19.000Z</time>
      </trkpt>
      <trkpt lat="44.52782" lon="5.54328">
        <ele>1237.61</ele>
        <time>2018-05-23T11:27:29.000Z</time>
      </trkpt>
      <trkpt lat="44.52792" lon="5.54344">
        <ele>1233.65</ele>
        <time>2018-05-23T11:27:39.000Z</time>
      </trkpt>
      <trkpt lat="44.52795" lon="5.54357">
        <ele>1231.92</ele>
        <time>2018-05-23T11:27:55.000Z</time>
      </trkpt>
      <trkpt lat="44.52802" lon="5.54367">
        <ele>1229.06</ele>
        <time>2018-05-23T11:28:30.000Z</time>
      </trkpt>
      <trkpt lat="44.5281" lon="5.54386">
        <ele>1224.84</ele>
        <time>2018-05-23T11:28:40.000Z</time>
      </trkpt>
      <trkpt lat="44.52813" lon="5.544">
        <ele>1222.29</ele>
        <time>2018-05-23T11:28:58.000Z</time>
      </trkpt>
      <trkpt lat="44.52816" lon="5.54412">
        <ele>1219.53</ele>
        <time>2018-05-23T11:29:11.000Z</time>
      </trkpt>
      <trkpt lat="44.5282" lon="5.54426">
        <ele>1216.03</ele>
        <time>2018-05-23T11:29:25.000Z</time>
      </trkpt>
      <trkpt lat="44.52824" lon="5.54444">
        <ele>1211.1</ele>
        <time>2018-05-23T11:29:35.000Z</time>
      </trkpt>
      <trkpt lat="44.52825" lon="5.54461">
        <ele>1206.91</ele>
        <time>2018-05-23T11:29:45.000Z</time>
      </trkpt>
      <trkpt lat="44.52821" lon="5.54473">
        <ele>1206.03</ele>
        <time>2018-05-23T11:30:09.000Z</time>
      </trkpt>
      <trkpt lat="44.52817" lon="5.54485">
        <ele>1204.07</ele>
        <time>2018-05-23T11:32:01.000Z</time>
      </trkpt>
      <trkpt lat="44.52804" lon="5.54512">
        <ele>1199.79</ele>
        <time>2018-05-23T11:32:11.000Z</time>
      </trkpt>
      <trkpt lat="44.52797" lon="5.54528">
        <ele>1196.19</ele>
        <time>2018-05-23T11:32:21.000Z</time>
      </trkpt>
      <trkpt lat="44.52785" lon="5.54541">
        <ele>1194.55</ele>
        <time>2018-05-23T11:32:31.000Z</time>
      </trkpt>
      <trkpt lat="44.52778" lon="5.54551">
        <ele>1192.67</ele>
        <time>2018-05-23T11:32:42.000Z</time>
      </trkpt>
      <trkpt lat="44.52771" lon="5.5456">
        <ele>1191.17</ele>
        <time>2018-05-23T11:32:54.000Z</time>
      </trkpt>
      <trkpt lat="44.5276" lon="5.54576">
        <ele>1188.4</ele>
        <time>2018-05-23T11:33:04.000Z</time>
      </trkpt>
      <trkpt lat="44.52759" lon="5.54589">
        <ele>1185.12</ele>
        <time>2018-05-23T11:33:16.000Z</time>
      </trkpt>
      <trkpt lat="44.52752" lon="5.54599">
        <ele>1183.1</ele>
        <time>2018-05-23T11:33:28.000Z</time>
      </trkpt>
      <trkpt lat="44.52747" lon="5.54612">
        <ele>1180.05</ele>
        <time>2018-05-23T11:33:38.000Z</time>
      </trkpt>
      <trkpt lat="44.52742" lon="5.54623">
        <ele>1177.2</ele>
        <time>2018-05-23T11:33:48.000Z</time>
      </trkpt>
      <trkpt lat="44.52739" lon="5.54641">
        <ele>1172.64</ele>
        <time>2018-05-23T11:33:58.000Z</time>
      </trkpt>
      <trkpt lat="44.52739" lon="5.54654">
        <ele>1169.14</ele>
        <time>2018-05-23T11:34:11.000Z</time>
      </trkpt>
      <trkpt lat="44.52742" lon="5.54667">
        <ele>1165.76</ele>
        <time>2018-05-23T11:34:45.000Z</time>
      </trkpt>
      <trkpt lat="44.52741" lon="5.5468">
        <ele>1161.9</ele>
        <time>2018-05-23T11:35:16.000Z</time>
      </trkpt>
      <trkpt lat="44.52752" lon="5.54684">
        <ele>1160.62</ele>
        <time>2018-05-23T11:36:15.000Z</time>
      </trkpt>
      <trkpt lat="44.52759" lon="5.54695">
        <ele>1156.9</ele>
        <time>2018-05-23T11:37:17.000Z</time>
      </trkpt>
      <trkpt lat="44.52773" lon="5.547">
        <ele>1153.19</ele>
        <time>2018-05-23T11:37:27.000Z</time>
      </trkpt>
      <trkpt lat="44.5278" lon="5.54714">
        <ele>1147.54</ele>
        <time>2018-05-23T11:37:37.000Z</time>
      </trkpt>
      <trkpt lat="44.52789" lon="5.54718">
        <ele>1144.38</ele>
        <time>2018-05-23T11:37:55.000Z</time>
      </trkpt>
      <trkpt lat="44.52789" lon="5.54731">
        <ele>1140.49</ele>
        <time>2018-05-23T11:38:05.000Z</time>
      </trkpt>
      <trkpt lat="44.52799" lon="5.54735">
        <ele>1137.36</ele>
        <time>2018-05-23T11:38:30.000Z</time>
      </trkpt>
      <trkpt lat="44.52805" lon="5.54745">
        <ele>1133.18</ele>
        <time>2018-05-23T11:39:29.000Z</time>
      </trkpt>
      <trkpt lat="44.52807" lon="5.5476">
        <ele>1128.64</ele>
        <time>2018-05-23T11:39:41.000Z</time>
      </trkpt>
      <trkpt lat="44.52816" lon="5.5477">
        <ele>1124.02</ele>
        <time>2018-05-23T11:39:51.000Z</time>
      </trkpt>
      <trkpt lat="44.5282" lon="5.54786">
        <ele>1118.99</ele>
        <time>2018-05-23T11:40:01.000Z</time>
      </trkpt>
      <trkpt lat="44.5282" lon="5.54799">
        <ele>1115.36</ele>
        <time>2018-05-23T11:40:11.000Z</time>
      </trkpt>
      <trkpt lat="44.52827" lon="5.54808">
        <ele>1111.94</ele>
        <time>2018-05-23T11:40:23.000Z</time>
      </trkpt>
      <trkpt lat="44.52829" lon="5.54821">
        <ele>1108.48</ele>
        <time>2018-05-23T11:40:35.000Z</time>
      </trkpt>
      <trkpt lat="44.52827" lon="5.54835">
        <ele>1105.42</ele>
        <time>2018-05-23T11:40:47.000Z</time>
      </trkpt>
      <trkpt lat="44.52823" lon="5.54851">
        <ele>1101.88</ele>
        <time>2018-05-23T11:40:57.000Z</time>
      </trkpt>
      <trkpt lat="44.52826" lon="5.54863">
        <ele>1098.8</ele>
        <time>2018-05-23T11:41:08.000Z</time>
      </trkpt>
      <trkpt lat="44.52831" lon="5.54874">
        <ele>1096.01</ele>
        <time>2018-05-23T11:41:20.000Z</time>
      </trkpt>
      <trkpt lat="44.52837" lon="5.54892">
        <ele>1092.25</ele>
        <time>2018-05-23T11:41:30.000Z</time>
      </trkpt>
      <trkpt lat="44.52842" lon="5.5491">
        <ele>1089.32</ele>
        <time>2018-05-23T11:41:40.000Z</time>
      </trkpt>
      <trkpt lat="44.52853" lon="5.54917">
        <ele>1088.62</ele>
        <time>2018-05-23T11:41:50.000Z</time>
      </trkpt>
      <trkpt lat="44.52866" lon="5.54921">
        <ele>1087.99</ele>
        <time>2018-05-23T11:42:00.000Z</time>
      </trkpt>
      <trkpt lat="44.52875" lon="5.54922">
        <ele>1087.39</ele>
        <time>2018-05-23T11:42:53.000Z</time>
      </trkpt>
      <trkpt lat="44.52886" lon="5.54915">
        <ele>1086.28</ele>
        <time>2018-05-23T11:45:49.000Z</time>
      </trkpt>
      <trkpt lat="44.52889" lon="5.54895">
        <ele>1086.02</ele>
        <time>2018-05-23T11:45:59.000Z</time>
      </trkpt>
      <trkpt lat="44.52914" lon="5.54891">
        <ele>1080.47</ele>
        <time>2018-05-23T11:46:09.000Z</time>
      </trkpt>
      <trkpt lat="44.52907" lon="5.54873">
        <ele>1082.08</ele>
        <time>2018-05-23T11:46:19.000Z</time>
      </trkpt>
      <trkpt lat="44.52903" lon="5.54854">
        <ele>1084.14</ele>
        <time>2018-05-23T11:46:29.000Z</time>
      </trkpt>
      <trkpt lat="44.52919" lon="5.54847">
        <ele>1078.78</ele>
        <time>2018-05-23T11:46:39.000Z</time>
      </trkpt>
      <trkpt lat="44.52916" lon="5.54831">
        <ele>1080.26</ele>
        <time>2018-05-23T11:46:49.000Z</time>
      </trkpt>
      <trkpt lat="44.52926" lon="5.54815">
        <ele>1076.79</ele>
        <time>2018-05-23T11:46:59.000Z</time>
      </trkpt>
      <trkpt lat="44.52923" lon="5.54802">
        <ele>1079.1</ele>
        <time>2018-05-23T11:47:09.000Z</time>
      </trkpt>
      <trkpt lat="44.52925" lon="5.54786">
        <ele>1078.97</ele>
        <time>2018-05-23T11:47:19.000Z</time>
      </trkpt>
      <trkpt lat="44.52934" lon="5.54772">
        <ele>1075.81</ele>
        <time>2018-05-23T11:47:29.000Z</time>
      </trkpt>
      <trkpt lat="44.52934" lon="5.54758">
        <ele>1076.78</ele>
        <time>2018-05-23T11:47:39.000Z</time>
      </trkpt>
      <trkpt lat="44.52933" lon="5.54745">
        <ele>1077.88</ele>
        <time>2018-05-23T11:47:50.000Z</time>
      </trkpt>
      <trkpt lat="44.52931" lon="5.54728">
        <ele>1080.28</ele>
        <time>2018-05-23T11:48:00.000Z</time>
      </trkpt>
      <trkpt lat="44.52931" lon="5.54711">
        <ele>1081.14</ele>
        <time>2018-05-23T11:48:10.000Z</time>
      </trkpt>
      <trkpt lat="44.52941" lon="5.54696">
        <ele>1077.08</ele>
        <time>2018-05-23T11:48:20.000Z</time>
      </trkpt>
      <trkpt lat="44.52947" lon="5.54686">
        <ele>1074.98</ele>
        <time>2018-05-23T11:48:32.000Z</time>
      </trkpt>
      <trkpt lat="44.52954" lon="5.54675">
        <ele>1072.37</ele>
        <time>2018-05-23T11:48:42.000Z</time>
      </trkpt>
      <trkpt lat="44.52967" lon="5.54663">
        <ele>1067.73</ele>
        <time>2018-05-23T11:48:52.000Z</time>
      </trkpt>
      <trkpt lat="44.52976" lon="5.54647">
        <ele>1064.98</ele>
        <time>2018-05-23T11:49:02.000Z</time>
      </trkpt>
      <trkpt lat="44.52978" lon="5.54628">
        <ele>1066.84</ele>
        <time>2018-05-23T11:49:12.000Z</time>
      </trkpt>
      <trkpt lat="44.52981" lon="5.54613">
        <ele>1067.49</ele>
        <time>2018-05-23T11:49:22.000Z</time>
      </trkpt>
      <trkpt lat="44.52991" lon="5.54599">
        <ele>1064.58</ele>
        <time>2018-05-23T11:49:32.000Z</time>
      </trkpt>
      <trkpt lat="44.52998" lon="5.54584">
        <ele>1063.88</ele>
        <time>2018-05-23T11:49:42.000Z</time>
      </trkpt>
      <trkpt lat="44.53005" lon="5.54572">
        <ele>1063.18</ele>
        <time>2018-05-23T11:49:52.000Z</time>
      </trkpt>
      <trkpt lat="44.53014" lon="5.54556">
        <ele>1062.83</ele>
        <time>2018-05-23T11:50:02.000Z</time>
      </trkpt>
      <trkpt lat="44.53022" lon="5.54543">
        <ele>1062.63</ele>
        <time>2018-05-23T11:50:12.000Z</time>
      </trkpt>
      <trkpt lat="44.53033" lon="5.54534">
        <ele>1060.36</ele>
        <time>2018-05-23T11:50:22.000Z</time>
      </trkpt>
      <trkpt lat="44.53039" lon="5.54521">
        <ele>1061.18</ele>
        <time>2018-05-23T11:50:32.000Z</time>
      </trkpt>
      <trkpt lat="44.53049" lon="5.54508">
        <ele>1060.3</ele>
        <time>2018-05-23T11:50:42.000Z</time>
      </trkpt>
      <trkpt lat="44.53053" lon="5.54496">
        <ele>1061.12</ele>
        <time>2018-05-23T11:50:52.000Z</time>
      </trkpt>
      <trkpt lat="44.53055" lon="5.54483">
        <ele>1062.88</ele>
        <time>2018-05-23T11:51:02.000Z</time>
      </trkpt>
      <trkpt lat="44.53056" lon="5.5447">
        <ele>1065.5</ele>
        <time>2018-05-23T11:51:12.000Z</time>
      </trkpt>
      <trkpt lat="44.53065" lon="5.54453">
        <ele>1064.85</ele>
        <time>2018-05-23T11:51:22.000Z</time>
      </trkpt>
      <trkpt lat="44.53077" lon="5.54432">
        <ele>1063.57</ele>
        <time>2018-05-23T11:51:32.000Z</time>
      </trkpt>
      <trkpt lat="44.53084" lon="5.54415">
        <ele>1063.06</ele>
        <time>2018-05-23T11:51:42.000Z</time>
      </trkpt>
      <trkpt lat="44.53081" lon="5.54392">
        <ele>1066.24</ele>
        <time>2018-05-23T11:51:52.000Z</time>
      </trkpt>
      <trkpt lat="44.53076" lon="5.54381">
        <ele>1068.89</ele>
        <time>2018-05-23T11:54:07.000Z</time>
      </trkpt>
      <trkpt lat="44.53078" lon="5.54368">
        <ele>1068.64</ele>
        <time>2018-05-23T11:54:27.000Z</time>
      </trkpt>
      <trkpt lat="44.5309" lon="5.54355">
        <ele>1064.75</ele>
        <time>2018-05-23T11:54:37.000Z</time>
      </trkpt>
      <trkpt lat="44.53086" lon="5.54334">
        <ele>1066.85</ele>
        <time>2018-05-23T11:54:47.000Z</time>
      </trkpt>
      <trkpt lat="44.53086" lon="5.54321">
        <ele>1067.27</ele>
        <time>2018-05-23T11:55:03.000Z</time>
      </trkpt>
      <trkpt lat="44.53085" lon="5.54305">
        <ele>1068.29</ele>
        <time>2018-05-23T11:55:13.000Z</time>
      </trkpt>
      <trkpt lat="44.5308" lon="5.54288">
        <ele>1070.75</ele>
        <time>2018-05-23T11:55:23.000Z</time>
      </trkpt>
      <trkpt lat="44.53081" lon="5.54274">
        <ele>1070.59</ele>
        <time>2018-05-23T11:55:34.000Z</time>
      </trkpt>
      <trkpt lat="44.53078" lon="5.54262">
        <ele>1071.83</ele>
        <time>2018-05-23T11:55:44.000Z</time>
      </trkpt>
      <trkpt lat="44.5308" lon="5.54242">
        <ele>1071.3</ele>
        <time>2018-05-23T11:55:54.000Z</time>
      </trkpt>
      <trkpt lat="44.53081" lon="5.54226">
        <ele>1071.46</ele>
        <time>2018-05-23T11:56:04.000Z</time>
      </trkpt>
      <trkpt lat="44.53086" lon="5.54213">
        <ele>1069.81</ele>
        <time>2018-05-23T11:56:14.000Z</time>
      </trkpt>
      <trkpt lat="44.53091" lon="5.542">
        <ele>1068.55</ele>
        <time>2018-05-23T11:56:24.000Z</time>
      </trkpt>
      <trkpt lat="44.53086" lon="5.54184">
        <ele>1070.66</ele>
        <time>2018-05-23T11:56:34.000Z</time>
      </trkpt>
      <trkpt lat="44.53082" lon="5.54169">
        <ele>1072.62</ele>
        <time>2018-05-23T11:56:44.000Z</time>
      </trkpt>
      <trkpt lat="44.53078" lon="5.54151">
        <ele>1074.82</ele>
        <time>2018-05-23T11:56:54.000Z</time>
      </trkpt>
      <trkpt lat="44.5308" lon="5.54133">
        <ele>1074.46</ele>
        <time>2018-05-23T11:57:04.000Z</time>
      </trkpt>
      <trkpt lat="44.53075" lon="5.54114">
        <ele>1077.53</ele>
        <time>2018-05-23T11:57:14.000Z</time>
      </trkpt>
      <trkpt lat="44.53073" lon="5.54099">
        <ele>1079.22</ele>
        <time>2018-05-23T11:57:24.000Z</time>
      </trkpt>
      <trkpt lat="44.53076" lon="5.54082">
        <ele>1078.19</ele>
        <time>2018-05-23T11:57:34.000Z</time>
      </trkpt>
      <trkpt lat="44.53075" lon="5.54067">
        <ele>1079.54</ele>
        <time>2018-05-23T11:57:44.000Z</time>
      </trkpt>
      <trkpt lat="44.53078" lon="5.54049">
        <ele>1079.63</ele>
        <time>2018-05-23T11:57:54.000Z</time>
      </trkpt>
      <trkpt lat="44.53084" lon="5.54036">
        <ele>1077.62</ele>
        <time>2018-05-23T11:58:04.000Z</time>
      </trkpt>
      <trkpt lat="44.53084" lon="5.54023">
        <ele>1078.58</ele>
        <time>2018-05-23T11:58:14.000Z</time>
      </trkpt>
      <trkpt lat="44.53086" lon="5.54006">
        <ele>1078.57</ele>
        <time>2018-05-23T11:58:24.000Z</time>
      </trkpt>
      <trkpt lat="44.53086" lon="5.53993">
        <ele>1079.22</ele>
        <time>2018-05-23T11:58:35.000Z</time>
      </trkpt>
      <trkpt lat="44.53079" lon="5.53978">
        <ele>1082.88</ele>
        <time>2018-05-23T11:58:45.000Z</time>
      </trkpt>
      <trkpt lat="44.53073" lon="5.53961">
        <ele>1086.11</ele>
        <time>2018-05-23T11:58:55.000Z</time>
      </trkpt>
      <trkpt lat="44.53079" lon="5.53942">
        <ele>1083.82</ele>
        <time>2018-05-23T11:59:05.000Z</time>
      </trkpt>
      <trkpt lat="44.53088" lon="5.53927">
        <ele>1079.9</ele>
        <time>2018-05-23T11:59:15.000Z</time>
      </trkpt>
      <trkpt lat="44.53084" lon="5.53912">
        <ele>1081.78</ele>
        <time>2018-05-23T11:59:25.000Z</time>
      </trkpt>
      <trkpt lat="44.53092" lon="5.53896">
        <ele>1078.46</ele>
        <time>2018-05-23T11:59:35.000Z</time>
      </trkpt>
      <trkpt lat="44.53096" lon="5.53882">
        <ele>1076.62</ele>
        <time>2018-05-23T11:59:45.000Z</time>
      </trkpt>
      <trkpt lat="44.53091" lon="5.53861">
        <ele>1078.16</ele>
        <time>2018-05-23T11:59:55.000Z</time>
      </trkpt>
      <trkpt lat="44.53091" lon="5.53842">
        <ele>1077.95</ele>
        <time>2018-05-23T12:00:05.000Z</time>
      </trkpt>
      <trkpt lat="44.53093" lon="5.53824">
        <ele>1076.66</ele>
        <time>2018-05-23T12:00:15.000Z</time>
      </trkpt>
      <trkpt lat="44.531" lon="5.53807">
        <ele>1073.54</ele>
        <time>2018-05-23T12:00:25.000Z</time>
      </trkpt>
      <trkpt lat="44.53096" lon="5.5379">
        <ele>1074.42</ele>
        <time>2018-05-23T12:00:35.000Z</time>
      </trkpt>
      <trkpt lat="44.53091" lon="5.53772">
        <ele>1075.62</ele>
        <time>2018-05-23T12:00:45.000Z</time>
      </trkpt>
      <trkpt lat="44.53091" lon="5.53751">
        <ele>1075.12</ele>
        <time>2018-05-23T12:00:55.000Z</time>
      </trkpt>
      <trkpt lat="44.53087" lon="5.53734">
        <ele>1076.12</ele>
        <time>2018-05-23T12:01:05.000Z</time>
      </trkpt>
      <trkpt lat="44.5309" lon="5.53715">
        <ele>1074.37</ele>
        <time>2018-05-23T12:01:15.000Z</time>
      </trkpt>
      <trkpt lat="44.53086" lon="5.53695">
        <ele>1075.73</ele>
        <time>2018-05-23T12:01:25.000Z</time>
      </trkpt>
      <trkpt lat="44.53083" lon="5.53681">
        <ele>1076.75</ele>
        <time>2018-05-23T12:01:35.000Z</time>
      </trkpt>
      <trkpt lat="44.53087" lon="5.53667">
        <ele>1075.55</ele>
        <time>2018-05-23T12:01:45.000Z</time>
      </trkpt>
      <trkpt lat="44.53087" lon="5.53649">
        <ele>1076.53</ele>
        <time>2018-05-23T12:01:55.000Z</time>
      </trkpt>
      <trkpt lat="44.53082" lon="5.5363">
        <ele>1080.13</ele>
        <time>2018-05-23T12:02:05.000Z</time>
      </trkpt>
      <trkpt lat="44.53077" lon="5.53616">
        <ele>1083.94</ele>
        <time>2018-05-23T12:02:15.000Z</time>
      </trkpt>
      <trkpt lat="44.53079" lon="5.53594">
        <ele>1085.1</ele>
        <time>2018-05-23T12:02:25.000Z</time>
      </trkpt>
      <trkpt lat="44.53087" lon="5.53578">
        <ele>1083.06</ele>
        <time>2018-05-23T12:02:35.000Z</time>
      </trkpt>
      <trkpt lat="44.53101" lon="5.53568">
        <ele>1078.5</ele>
        <time>2018-05-23T12:02:45.000Z</time>
      </trkpt>
      <trkpt lat="44.53104" lon="5.53553">
        <ele>1078.9</ele>
        <time>2018-05-23T12:02:55.000Z</time>
      </trkpt>
      <trkpt lat="44.53107" lon="5.53541">
        <ele>1078.99</ele>
        <time>2018-05-23T12:03:05.000Z</time>
      </trkpt>
      <trkpt lat="44.53106" lon="5.53527">
        <ele>1080.26</ele>
        <time>2018-05-23T12:03:15.000Z</time>
      </trkpt>
      <trkpt lat="44.53113" lon="5.53514">
        <ele>1079.36</ele>
        <time>2018-05-23T12:03:25.000Z</time>
      </trkpt>
      <trkpt lat="44.53106" lon="5.535">
        <ele>1082.43</ele>
        <time>2018-05-23T12:03:35.000Z</time>
      </trkpt>
      <trkpt lat="44.53098" lon="5.53491">
        <ele>1085.83</ele>
        <time>2018-05-23T12:03:45.000Z</time>
      </trkpt>
      <trkpt lat="44.53096" lon="5.53475">
        <ele>1087.65</ele>
        <time>2018-05-23T12:03:55.000Z</time>
      </trkpt>
      <trkpt lat="44.53087" lon="5.53466">
        <ele>1092.16</ele>
        <time>2018-05-23T12:04:05.000Z</time>
      </trkpt>
      <trkpt lat="44.53094" lon="5.53446">
        <ele>1090.88</ele>
        <time>2018-05-23T12:04:15.000Z</time>
      </trkpt>
      <trkpt lat="44.53096" lon="5.53433">
        <ele>1091.05</ele>
        <time>2018-05-23T12:04:28.000Z</time>
      </trkpt>
      <trkpt lat="44.53102" lon="5.53422">
        <ele>1089.24</ele>
        <time>2018-05-23T12:04:38.000Z</time>
      </trkpt>
      <trkpt lat="44.5311" lon="5.53416">
        <ele>1086.44</ele>
        <time>2018-05-23T12:05:00.000Z</time>
      </trkpt>
      <trkpt lat="44.53108" lon="5.53402">
        <ele>1088.52</ele>
        <time>2018-05-23T12:07:12.000Z</time>
      </trkpt>
      <trkpt lat="44.53106" lon="5.53387">
        <ele>1090.82</ele>
        <time>2018-05-23T12:07:22.000Z</time>
      </trkpt>
      <trkpt lat="44.53105" lon="5.53374">
        <ele>1092.3</ele>
        <time>2018-05-23T12:07:32.000Z</time>
      </trkpt>
      <trkpt lat="44.53101" lon="5.53361">
        <ele>1095.68</ele>
        <time>2018-05-23T12:07:47.000Z</time>
      </trkpt>
      <trkpt lat="44.53105" lon="5.53341">
        <ele>1096.35</ele>
        <time>2018-05-23T12:07:57.000Z</time>
      </trkpt>
      <trkpt lat="44.53103" lon="5.53328">
        <ele>1098.88</ele>
        <time>2018-05-23T12:08:07.000Z</time>
      </trkpt>
      <trkpt lat="44.53102" lon="5.53314">
        <ele>1101.41</ele>
        <time>2018-05-23T12:08:19.000Z</time>
      </trkpt>
      <trkpt lat="44.53101" lon="5.53301">
        <ele>1104.19</ele>
        <time>2018-05-23T12:08:30.000Z</time>
      </trkpt>
      <trkpt lat="44.531" lon="5.53286">
        <ele>1106.72</ele>
        <time>2018-05-23T12:08:41.000Z</time>
      </trkpt>
      <trkpt lat="44.531" lon="5.5327">
        <ele>1109.58</ele>
        <time>2018-05-23T12:08:51.000Z</time>
      </trkpt>
      <trkpt lat="44.53107" lon="5.53256">
        <ele>1107.71</ele>
        <time>2018-05-23T12:09:01.000Z</time>
      </trkpt>
      <trkpt lat="44.53104" lon="5.53243">
        <ele>1111.49</ele>
        <time>2018-05-23T12:09:12.000Z</time>
      </trkpt>
      <trkpt lat="44.53113" lon="5.5323">
        <ele>1109.14</ele>
        <time>2018-05-23T12:09:22.000Z</time>
      </trkpt>
      <trkpt lat="44.53118" lon="5.53219">
        <ele>1108.48</ele>
        <time>2018-05-23T12:09:33.000Z</time>
      </trkpt>
      <trkpt lat="44.53112" lon="5.53208">
        <ele>1113.55</ele>
        <time>2018-05-23T12:09:43.000Z</time>
      </trkpt>
      <trkpt lat="44.53114" lon="5.53195">
        <ele>1114.87</ele>
        <time>2018-05-23T12:10:09.000Z</time>
      </trkpt>
      <trkpt lat="44.53129" lon="5.5317">
        <ele>1112.39</ele>
        <time>2018-05-23T12:10:19.000Z</time>
      </trkpt>
      <trkpt lat="44.53135" lon="5.53148">
        <ele>1113.71</ele>
        <time>2018-05-23T12:10:29.000Z</time>
      </trkpt>
      <trkpt lat="44.53136" lon="5.53134">
        <ele>1115.9</ele>
        <time>2018-05-23T12:10:39.000Z</time>
      </trkpt>
      <trkpt lat="44.53134" lon="5.5312">
        <ele>1118.67</ele>
        <time>2018-05-23T12:10:52.000Z</time>
      </trkpt>
      <trkpt lat="44.53144" lon="5.5311">
        <ele>1116.61</ele>
        <time>2018-05-23T12:11:02.000Z</time>
      </trkpt>
      <trkpt lat="44.53147" lon="5.53094">
        <ele>1118.37</ele>
        <time>2018-05-23T12:11:12.000Z</time>
      </trkpt>
      <trkpt lat="44.53152" lon="5.53083">
        <ele>1118.48</ele>
        <time>2018-05-23T12:11:25.000Z</time>
      </trkpt>
      <trkpt lat="44.5316" lon="5.53072">
        <ele>1118.12</ele>
        <time>2018-05-23T12:11:35.000Z</time>
      </trkpt>
      <trkpt lat="44.53169" lon="5.53065">
        <ele>1116.91</ele>
        <time>2018-05-23T12:12:27.000Z</time>
      </trkpt>
      <trkpt lat="44.53204" lon="5.53044">
        <ele>1112.56</ele>
        <time>2018-05-23T12:12:37.000Z</time>
      </trkpt>
      <trkpt lat="44.53215" lon="5.53032">
        <ele>1113.03</ele>
        <time>2018-05-23T12:12:47.000Z</time>
      </trkpt>
      <trkpt lat="44.53221" lon="5.5302">
        <ele>1113.88</ele>
        <time>2018-05-23T12:12:57.000Z</time>
      </trkpt>
      <trkpt lat="44.53226" lon="5.5301">
        <ele>1114.9</ele>
        <time>2018-05-23T12:13:07.000Z</time>
      </trkpt>
      <trkpt lat="44.53234" lon="5.53">
        <ele>1115.13</ele>
        <time>2018-05-23T12:13:17.000Z</time>
      </trkpt>
      <trkpt lat="44.53245" lon="5.52999">
        <ele>1113.16</ele>
        <time>2018-05-23T12:13:27.000Z</time>
      </trkpt>
      <trkpt lat="44.53251" lon="5.52988">
        <ele>1113.68</ele>
        <time>2018-05-23T12:13:37.000Z</time>
      </trkpt>
      <trkpt lat="44.53246" lon="5.52971">
        <ele>1116.77</ele>
        <time>2018-05-23T12:13:47.000Z</time>
      </trkpt>
      <trkpt lat="44.5326" lon="5.52959">
        <ele>1115.91</ele>
        <time>2018-05-23T12:13:57.000Z</time>
      </trkpt>
      <trkpt lat="44.53267" lon="5.52949">
        <ele>1116.19</ele>
        <time>2018-05-23T12:14:07.000Z</time>
      </trkpt>
      <trkpt lat="44.53277" lon="5.52938">
        <ele>1115.98</ele>
        <time>2018-05-23T12:14:17.000Z</time>
      </trkpt>
      <trkpt lat="44.53282" lon="5.52925">
        <ele>1116.5</ele>
        <time>2018-05-23T12:14:27.000Z</time>
      </trkpt>
      <trkpt lat="44.53286" lon="5.5291">
        <ele>1117.26</ele>
        <time>2018-05-23T12:14:37.000Z</time>
      </trkpt>
      <trkpt lat="44.53288" lon="5.52896">
        <ele>1117.63</ele>
        <time>2018-05-23T12:14:47.000Z</time>
      </trkpt>
      <trkpt lat="44.53295" lon="5.52886">
        <ele>1117.16</ele>
        <time>2018-05-23T12:16:58.000Z</time>
      </trkpt>
      <trkpt lat="44.53303" lon="5.52877">
        <ele>1116.64</ele>
        <time>2018-05-23T12:18:01.000Z</time>
      </trkpt>
      <trkpt lat="44.5331" lon="5.52871">
        <ele>1116.13</ele>
        <time>2018-05-23T12:18:27.000Z</time>
      </trkpt>
      <trkpt lat="44.53315" lon="5.5286">
        <ele>1115.85</ele>
        <time>2018-05-23T12:20:04.000Z</time>
      </trkpt>
      <trkpt lat="44.53319" lon="5.52845">
        <ele>1115.67</ele>
        <time>2018-05-23T12:20:14.000Z</time>
      </trkpt>
      <trkpt lat="44.53324" lon="5.52833">
        <ele>1115.66</ele>
        <time>2018-05-23T12:20:27.000Z</time>
      </trkpt>
      <trkpt lat="44.53329" lon="5.52823">
        <ele>1115.59</ele>
        <time>2018-05-23T12:20:38.000Z</time>
      </trkpt>
      <trkpt lat="44.53341" lon="5.52827">
        <ele>1114.71</ele>
        <time>2018-05-23T12:20:48.000Z</time>
      </trkpt>
      <trkpt lat="44.53347" lon="5.52837">
        <ele>1114.13</ele>
        <time>2018-05-23T12:20:58.000Z</time>
      </trkpt>
      <trkpt lat="44.53353" lon="5.52847">
        <ele>1113.71</ele>
        <time>2018-05-23T12:21:10.000Z</time>
      </trkpt>
      <trkpt lat="44.53362" lon="5.52861">
        <ele>1113.25</ele>
        <time>2018-05-23T12:21:20.000Z</time>
      </trkpt>
      <trkpt lat="44.5337" lon="5.52874">
        <ele>1112.69</ele>
        <time>2018-05-23T12:21:30.000Z</time>
      </trkpt>
      <trkpt lat="44.53377" lon="5.52886">
        <ele>1111.91</ele>
        <time>2018-05-23T12:21:42.000Z</time>
      </trkpt>
      <trkpt lat="44.53377" lon="5.52905">
        <ele>1110.32</ele>
        <time>2018-05-23T12:21:52.000Z</time>
      </trkpt>
      <trkpt lat="44.53381" lon="5.52917">
        <ele>1108.49</ele>
        <time>2018-05-23T12:22:02.000Z</time>
      </trkpt>
      <trkpt lat="44.5338" lon="5.5293">
        <ele>1106.13</ele>
        <time>2018-05-23T12:22:13.000Z</time>
      </trkpt>
      <trkpt lat="44.53384" lon="5.52952">
        <ele>1100.25</ele>
        <time>2018-05-23T12:22:23.000Z</time>
      </trkpt>
      <trkpt lat="44.53396" lon="5.52961">
        <ele>1095.75</ele>
        <time>2018-05-23T12:22:33.000Z</time>
      </trkpt>
      <trkpt lat="44.53407" lon="5.52972">
        <ele>1090.46</ele>
        <time>2018-05-23T12:22:43.000Z</time>
      </trkpt>
      <trkpt lat="44.53416" lon="5.52971">
        <ele>1089</ele>
        <time>2018-05-23T12:22:54.000Z</time>
      </trkpt>
      <trkpt lat="44.53426" lon="5.52965">
        <ele>1089.02</ele>
        <time>2018-05-23T12:23:04.000Z</time>
      </trkpt>
      <trkpt lat="44.53444" lon="5.52958">
        <ele>1087.09</ele>
        <time>2018-05-23T12:23:14.000Z</time>
      </trkpt>
      <trkpt lat="44.53455" lon="5.52956">
        <ele>1085.1</ele>
        <time>2018-05-23T12:23:24.000Z</time>
      </trkpt>
      <trkpt lat="44.5346" lon="5.52942">
        <ele>1087.5</ele>
        <time>2018-05-23T12:23:34.000Z</time>
      </trkpt>
      <trkpt lat="44.53479" lon="5.52928">
        <ele>1085</ele>
        <time>2018-05-23T12:23:44.000Z</time>
      </trkpt>
      <trkpt lat="44.53486" lon="5.5292">
        <ele>1084</ele>
        <time>2018-05-23T12:23:55.000Z</time>
      </trkpt>
      <trkpt lat="44.53498" lon="5.52908">
        <ele>1081.92</ele>
        <time>2018-05-23T12:24:05.000Z</time>
      </trkpt>
      <trkpt lat="44.5351" lon="5.52889">
        <ele>1079.6</ele>
        <time>2018-05-23T12:24:15.000Z</time>
      </trkpt>
      <trkpt lat="44.5351" lon="5.52866">
        <ele>1080.88</ele>
        <time>2018-05-23T12:24:25.000Z</time>
      </trkpt>
      <trkpt lat="44.5351" lon="5.52852">
        <ele>1081.42</ele>
        <time>2018-05-23T12:24:35.000Z</time>
      </trkpt>
      <trkpt lat="44.53513" lon="5.52836">
        <ele>1080.82</ele>
        <time>2018-05-23T12:24:45.000Z</time>
      </trkpt>
      <trkpt lat="44.53512" lon="5.52817">
        <ele>1081.47</ele>
        <time>2018-05-23T12:24:55.000Z</time>
      </trkpt>
      <trkpt lat="44.53516" lon="5.52798">
        <ele>1079.89</ele>
        <time>2018-05-23T12:25:05.000Z</time>
      </trkpt>
      <trkpt lat="44.53524" lon="5.52782">
        <ele>1077</ele>
        <time>2018-05-23T12:25:15.000Z</time>
      </trkpt>
      <trkpt lat="44.5353" lon="5.52771">
        <ele>1075.18</ele>
        <time>2018-05-23T12:25:25.000Z</time>
      </trkpt>
      <trkpt lat="44.53539" lon="5.52756">
        <ele>1072.33</ele>
        <time>2018-05-23T12:25:35.000Z</time>
      </trkpt>
      <trkpt lat="44.53546" lon="5.52739">
        <ele>1070.79</ele>
        <time>2018-05-23T12:25:45.000Z</time>
      </trkpt>
      <trkpt lat="44.53557" lon="5.52725">
        <ele>1068.55</ele>
        <time>2018-05-23T12:25:55.000Z</time>
      </trkpt>
      <trkpt lat="44.53564" lon="5.52713">
        <ele>1067.59</ele>
        <time>2018-05-23T12:26:05.000Z</time>
      </trkpt>
      <trkpt lat="44.53576" lon="5.52705">
        <ele>1065.68</ele>
        <time>2018-05-23T12:26:15.000Z</time>
      </trkpt>
      <trkpt lat="44.53585" lon="5.52706">
        <ele>1063.66</ele>
        <time>2018-05-23T12:26:33.000Z</time>
      </trkpt>
      <trkpt lat="44.53592" lon="5.52697">
        <ele>1062.79</ele>
        <time>2018-05-23T12:26:47.000Z</time>
      </trkpt>
      <trkpt lat="44.53603" lon="5.52687">
        <ele>1060.79</ele>
        <time>2018-05-23T12:26:57.000Z</time>
      </trkpt>
      <trkpt lat="44.5361" lon="5.5267">
        <ele>1059.85</ele>
        <time>2018-05-23T12:27:07.000Z</time>
      </trkpt>
      <trkpt lat="44.53618" lon="5.52653">
        <ele>1058.09</ele>
        <time>2018-05-23T12:27:17.000Z</time>
      </trkpt>
      <trkpt lat="44.53614" lon="5.52636">
        <ele>1058.73</ele>
        <time>2018-05-23T12:27:27.000Z</time>
      </trkpt>
      <trkpt lat="44.53615" lon="5.52611">
        <ele>1057.92</ele>
        <time>2018-05-23T12:27:37.000Z</time>
      </trkpt>
      <trkpt lat="44.53613" lon="5.5259">
        <ele>1057.64</ele>
        <time>2018-05-23T12:27:47.000Z</time>
      </trkpt>
      <trkpt lat="44.53621" lon="5.52565">
        <ele>1054.76</ele>
        <time>2018-05-23T12:27:57.000Z</time>
      </trkpt>
      <trkpt lat="44.53624" lon="5.52545">
        <ele>1053.11</ele>
        <time>2018-05-23T12:28:07.000Z</time>
      </trkpt>
      <trkpt lat="44.53639" lon="5.5253">
        <ele>1049.71</ele>
        <time>2018-05-23T12:28:17.000Z</time>
      </trkpt>
      <trkpt lat="44.53648" lon="5.52512">
        <ele>1047.45</ele>
        <time>2018-05-23T12:28:27.000Z</time>
      </trkpt>
      <trkpt lat="44.53659" lon="5.52495">
        <ele>1045.12</ele>
        <time>2018-05-23T12:28:37.000Z</time>
      </trkpt>
      <trkpt lat="44.53666" lon="5.52479">
        <ele>1043.56</ele>
        <time>2018-05-23T12:28:47.000Z</time>
      </trkpt>
      <trkpt lat="44.53681" lon="5.52463">
        <ele>1040.56</ele>
        <time>2018-05-23T12:28:57.000Z</time>
      </trkpt>
      <trkpt lat="44.53696" lon="5.52444">
        <ele>1037.52</ele>
        <time>2018-05-23T12:29:07.000Z</time>
      </trkpt>
      <trkpt lat="44.53701" lon="5.52429">
        <ele>1036.04</ele>
        <time>2018-05-23T12:29:17.000Z</time>
      </trkpt>
      <trkpt lat="44.53712" lon="5.52408">
        <ele>1032.87</ele>
        <time>2018-05-23T12:29:27.000Z</time>
      </trkpt>
      <trkpt lat="44.5372" lon="5.52398">
        <ele>1030.88</ele>
        <time>2018-05-23T12:29:37.000Z</time>
      </trkpt>
      <trkpt lat="44.53727" lon="5.52411">
        <ele>1030.6</ele>
        <time>2018-05-23T12:29:47.000Z</time>
      </trkpt>
      <trkpt lat="44.53731" lon="5.52432">
        <ele>1031.01</ele>
        <time>2018-05-23T12:29:57.000Z</time>
      </trkpt>
      <trkpt lat="44.53734" lon="5.52452">
        <ele>1031.13</ele>
        <time>2018-05-23T12:30:07.000Z</time>
      </trkpt>
      <trkpt lat="44.5374" lon="5.52463">
        <ele>1030.32</ele>
        <time>2018-05-23T12:32:37.000Z</time>
      </trkpt>
      <trkpt lat="44.53749" lon="5.52448">
        <ele>1028.33</ele>
        <time>2018-05-23T12:32:47.000Z</time>
      </trkpt>
      <trkpt lat="44.53755" lon="5.52437">
        <ele>1027.07</ele>
        <time>2018-05-23T12:32:58.000Z</time>
      </trkpt>
      <trkpt lat="44.5376" lon="5.52425">
        <ele>1025.8</ele>
        <time>2018-05-23T12:33:08.000Z</time>
      </trkpt>
      <trkpt lat="44.53767" lon="5.52414">
        <ele>1024.1</ele>
        <time>2018-05-23T12:33:18.000Z</time>
      </trkpt>
      <trkpt lat="44.53771" lon="5.52397">
        <ele>1022.15</ele>
        <time>2018-05-23T12:33:28.000Z</time>
      </trkpt>
      <trkpt lat="44.53776" lon="5.52377">
        <ele>1019.68</ele>
        <time>2018-05-23T12:33:38.000Z</time>
      </trkpt>
      <trkpt lat="44.5377" lon="5.52356">
        <ele>1018.49</ele>
        <time>2018-05-23T12:33:48.000Z</time>
      </trkpt>
      <trkpt lat="44.53766" lon="5.5234">
        <ele>1017.48</ele>
        <time>2018-05-23T12:33:58.000Z</time>
      </trkpt>
      <trkpt lat="44.53758" lon="5.52324">
        <ele>1017.08</ele>
        <time>2018-05-23T12:34:08.000Z</time>
      </trkpt>
      <trkpt lat="44.53757" lon="5.52309">
        <ele>1015.97</ele>
        <time>2018-05-23T12:34:18.000Z</time>
      </trkpt>
      <trkpt lat="44.5375" lon="5.52286">
        <ele>1014.86</ele>
        <time>2018-05-23T12:34:28.000Z</time>
      </trkpt>
      <trkpt lat="44.53757" lon="5.52267">
        <ele>1012.57</ele>
        <time>2018-05-23T12:34:38.000Z</time>
      </trkpt>
      <trkpt lat="44.53753" lon="5.52247">
        <ele>1011.47</ele>
        <time>2018-05-23T12:34:48.000Z</time>
      </trkpt>
      <trkpt lat="44.53753" lon="5.5223">
        <ele>1010.27</ele>
        <time>2018-05-23T12:34:58.000Z</time>
      </trkpt>
      <trkpt lat="44.53753" lon="5.52214">
        <ele>1009.2</ele>
        <time>2018-05-23T12:35:08.000Z</time>
      </trkpt>
      <trkpt lat="44.53747" lon="5.52196">
        <ele>1008.57</ele>
        <time>2018-05-23T12:35:18.000Z</time>
      </trkpt>
      <trkpt lat="44.53736" lon="5.52182">
        <ele>1008.24</ele>
        <time>2018-05-23T12:35:28.000Z</time>
      </trkpt>
      <trkpt lat="44.53725" lon="5.52168">
        <ele>1007.37</ele>
        <time>2018-05-23T12:35:38.000Z</time>
      </trkpt>
      <trkpt lat="44.53714" lon="5.52154">
        <ele>1006.01</ele>
        <time>2018-05-23T12:35:48.000Z</time>
      </trkpt>
      <trkpt lat="44.53705" lon="5.52141">
        <ele>1004.54</ele>
        <time>2018-05-23T12:35:58.000Z</time>
      </trkpt>
      <trkpt lat="44.537" lon="5.52126">
        <ele>1002.93</ele>
        <time>2018-05-23T12:36:08.000Z</time>
      </trkpt>
      <trkpt lat="44.53699" lon="5.52106">
        <ele>1000.93</ele>
        <time>2018-05-23T12:36:18.000Z</time>
      </trkpt>
      <trkpt lat="44.53699" lon="5.52086">
        <ele>998.82</ele>
        <time>2018-05-23T12:36:28.000Z</time>
      </trkpt>
      <trkpt lat="44.53684" lon="5.52076">
        <ele>997.61</ele>
        <time>2018-05-23T12:36:38.000Z</time>
      </trkpt>
      <trkpt lat="44.53672" lon="5.52065">
        <ele>996.17</ele>
        <time>2018-05-23T12:36:48.000Z</time>
      </trkpt>
      <trkpt lat="44.53663" lon="5.52053">
        <ele>994.77</ele>
        <time>2018-05-23T12:36:58.000Z</time>
      </trkpt>
      <trkpt lat="44.53655" lon="5.52036">
        <ele>992.57</ele>
        <time>2018-05-23T12:37:08.000Z</time>
      </trkpt>
      <trkpt lat="44.53665" lon="5.52026">
        <ele>991.87</ele>
        <time>2018-05-23T12:37:18.000Z</time>
      </trkpt>
      <trkpt lat="44.53675" lon="5.52013">
        <ele>990.66</ele>
        <time>2018-05-23T12:37:28.000Z</time>
      </trkpt>
      <trkpt lat="44.53682" lon="5.52">
        <ele>989.15</ele>
        <time>2018-05-23T12:37:38.000Z</time>
      </trkpt>
      <trkpt lat="44.53671" lon="5.51984">
        <ele>987.23</ele>
        <time>2018-05-23T12:37:48.000Z</time>
      </trkpt>
      <trkpt lat="44.53664" lon="5.5197">
        <ele>985.59</ele>
        <time>2018-05-23T12:37:58.000Z</time>
      </trkpt>
      <trkpt lat="44.53659" lon="5.51954">
        <ele>983.7</ele>
        <time>2018-05-23T12:38:08.000Z</time>
      </trkpt>
      <trkpt lat="44.53652" lon="5.51936">
        <ele>981.26</ele>
        <time>2018-05-23T12:38:18.000Z</time>
      </trkpt>
      <trkpt lat="44.5365" lon="5.51919">
        <ele>978.86</ele>
        <time>2018-05-23T12:38:28.000Z</time>
      </trkpt>
      <trkpt lat="44.53645" lon="5.51901">
        <ele>975.98</ele>
        <time>2018-05-23T12:38:38.000Z</time>
      </trkpt>
      <trkpt lat="44.53649" lon="5.51884">
        <ele>973.72</ele>
        <time>2018-05-23T12:38:48.000Z</time>
      </trkpt>
      <trkpt lat="44.53659" lon="5.51865">
        <ele>970.93</ele>
        <time>2018-05-23T12:39:17.000Z</time>
      </trkpt>
      <trkpt lat="44.53672" lon="5.51859">
        <ele>969.78</ele>
        <time>2018-05-23T12:39:27.000Z</time>
      </trkpt>
      <trkpt lat="44.53684" lon="5.5186">
        <ele>968.99</ele>
        <time>2018-05-23T12:39:37.000Z</time>
      </trkpt>
      <trkpt lat="44.53696" lon="5.51869">
        <ele>969.31</ele>
        <time>2018-05-23T12:39:47.000Z</time>
      </trkpt>
      <trkpt lat="44.5371" lon="5.51876">
        <ele>968.88</ele>
        <time>2018-05-23T12:39:57.000Z</time>
      </trkpt>
      <trkpt lat="44.53721" lon="5.51889">
        <ele>969.82</ele>
        <time>2018-05-23T12:40:07.000Z</time>
      </trkpt>
      <trkpt lat="44.53729" lon="5.51897">
        <ele>970.44</ele>
        <time>2018-05-23T12:40:17.000Z</time>
      </trkpt>
      <trkpt lat="44.53749" lon="5.51906">
        <ele>969.87</ele>
        <time>2018-05-23T12:40:27.000Z</time>
      </trkpt>
      <trkpt lat="44.53759" lon="5.51901">
        <ele>967.99</ele>
        <time>2018-05-23T12:40:42.000Z</time>
      </trkpt>
      <trkpt lat="44.53764" lon="5.51883">
        <ele>963.57</ele>
        <time>2018-05-23T12:40:52.000Z</time>
      </trkpt>
      <trkpt lat="44.53762" lon="5.51866">
        <ele>959.86</ele>
        <time>2018-05-23T12:41:02.000Z</time>
      </trkpt>
      <trkpt lat="44.53764" lon="5.51848">
        <ele>955.66</ele>
        <time>2018-05-23T12:41:12.000Z</time>
      </trkpt>
      <trkpt lat="44.53746" lon="5.51835">
        <ele>954.92</ele>
        <time>2018-05-23T12:41:22.000Z</time>
      </trkpt>
      <trkpt lat="44.53734" lon="5.51826">
        <ele>954.73</ele>
        <time>2018-05-23T12:41:32.000Z</time>
      </trkpt>
      <trkpt lat="44.53727" lon="5.51813">
        <ele>952.94</ele>
        <time>2018-05-23T12:41:42.000Z</time>
      </trkpt>
      <trkpt lat="44.53719" lon="5.51799">
        <ele>950.7</ele>
        <time>2018-05-23T12:41:52.000Z</time>
      </trkpt>
      <trkpt lat="44.5371" lon="5.51785">
        <ele>948.88</ele>
        <time>2018-05-23T12:42:02.000Z</time>
      </trkpt>
      <trkpt lat="44.53698" lon="5.51774">
        <ele>947.6</ele>
        <time>2018-05-23T12:42:12.000Z</time>
      </trkpt>
      <trkpt lat="44.53685" lon="5.51763">
        <ele>946.45</ele>
        <time>2018-05-23T12:42:22.000Z</time>
      </trkpt>
      <trkpt lat="44.53675" lon="5.51757">
        <ele>945.85</ele>
        <time>2018-05-23T12:42:32.000Z</time>
      </trkpt>
      <trkpt lat="44.53658" lon="5.51749">
        <ele>945.31</ele>
        <time>2018-05-23T12:42:42.000Z</time>
      </trkpt>
      <trkpt lat="44.53654" lon="5.51734">
        <ele>942.82</ele>
        <time>2018-05-23T12:42:52.000Z</time>
      </trkpt>
      <trkpt lat="44.53645" lon="5.51721">
        <ele>941.48</ele>
        <time>2018-05-23T12:43:02.000Z</time>
      </trkpt>
      <trkpt lat="44.53648" lon="5.51708">
        <ele>939.4</ele>
        <time>2018-05-23T12:43:12.000Z</time>
      </trkpt>
      <trkpt lat="44.53657" lon="5.51704">
        <ele>937.93</ele>
        <time>2018-05-23T12:43:27.000Z</time>
      </trkpt>
      <trkpt lat="44.5367" lon="5.51704">
        <ele>936.72</ele>
        <time>2018-05-23T12:43:37.000Z</time>
      </trkpt>
      <trkpt lat="44.53688" lon="5.51699">
        <ele>934.21</ele>
        <time>2018-05-23T12:43:47.000Z</time>
      </trkpt>
      <trkpt lat="44.53702" lon="5.51688">
        <ele>931.37</ele>
        <time>2018-05-23T12:43:57.000Z</time>
      </trkpt>
      <trkpt lat="44.53696" lon="5.51666">
        <ele>928.74</ele>
        <time>2018-05-23T12:44:07.000Z</time>
      </trkpt>
      <trkpt lat="44.53685" lon="5.51657">
        <ele>928.65</ele>
        <time>2018-05-23T12:44:17.000Z</time>
      </trkpt>
      <trkpt lat="44.53681" lon="5.51645">
        <ele>927.86</ele>
        <time>2018-05-23T12:44:28.000Z</time>
      </trkpt>
      <trkpt lat="44.53683" lon="5.51624">
        <ele>925.37</ele>
        <time>2018-05-23T12:44:38.000Z</time>
      </trkpt>
      <trkpt lat="44.53674" lon="5.51607">
        <ele>925.15</ele>
        <time>2018-05-23T12:44:48.000Z</time>
      </trkpt>
      <trkpt lat="44.53678" lon="5.51587">
        <ele>923.14</ele>
        <time>2018-05-23T12:44:58.000Z</time>
      </trkpt>
      <trkpt lat="44.53681" lon="5.51573">
        <ele>921.71</ele>
        <time>2018-05-23T12:45:08.000Z</time>
      </trkpt>
      <trkpt lat="44.53689" lon="5.51558">
        <ele>919.51</ele>
        <time>2018-05-23T12:45:18.000Z</time>
      </trkpt>
      <trkpt lat="44.53693" lon="5.5154">
        <ele>917.81</ele>
        <time>2018-05-23T12:45:28.000Z</time>
      </trkpt>
      <trkpt lat="44.53693" lon="5.51522">
        <ele>917.13</ele>
        <time>2018-05-23T12:45:38.000Z</time>
      </trkpt>
      <trkpt lat="44.53704" lon="5.51503">
        <ele>913.78</ele>
        <time>2018-05-23T12:45:48.000Z</time>
      </trkpt>
      <trkpt lat="44.53708" lon="5.51487">
        <ele>912.12</ele>
        <time>2018-05-23T12:45:58.000Z</time>
      </trkpt>
      <trkpt lat="44.53713" lon="5.51472">
        <ele>910.61</ele>
        <time>2018-05-23T12:46:08.000Z</time>
      </trkpt>
      <trkpt lat="44.53714" lon="5.51452">
        <ele>910.42</ele>
        <time>2018-05-23T12:46:18.000Z</time>
      </trkpt>
      <trkpt lat="44.53719" lon="5.51437">
        <ele>909</ele>
        <time>2018-05-23T12:46:28.000Z</time>
      </trkpt>
      <trkpt lat="44.53722" lon="5.5142">
        <ele>908.25</ele>
        <time>2018-05-23T12:46:38.000Z</time>
      </trkpt>
      <trkpt lat="44.53725" lon="5.51401">
        <ele>907.7</ele>
        <time>2018-05-23T12:46:48.000Z</time>
      </trkpt>
      <trkpt lat="44.53734" lon="5.51406">
        <ele>904.91</ele>
        <time>2018-05-23T12:46:58.000Z</time>
      </trkpt>
      <trkpt lat="44.5374" lon="5.51425">
        <ele>902.97</ele>
        <time>2018-05-23T12:47:08.000Z</time>
      </trkpt>
      <trkpt lat="44.5374" lon="5.51443">
        <ele>902.69</ele>
        <time>2018-05-23T12:47:18.000Z</time>
      </trkpt>
      <trkpt lat="44.53735" lon="5.51462">
        <ele>904.03</ele>
        <time>2018-05-23T12:47:28.000Z</time>
      </trkpt>
      <trkpt lat="44.5376" lon="5.51473">
        <ele>897.05</ele>
        <time>2018-05-23T12:47:38.000Z</time>
      </trkpt>
      <trkpt lat="44.53769" lon="5.51483">
        <ele>894.99</ele>
        <time>2018-05-23T12:48:08.000Z</time>
      </trkpt>
      <trkpt lat="44.53779" lon="5.51487">
        <ele>892.45</ele>
        <time>2018-05-23T12:48:18.000Z</time>
      </trkpt>
      <trkpt lat="44.53789" lon="5.51476">
        <ele>889.16</ele>
        <time>2018-05-23T12:48:28.000Z</time>
      </trkpt>
      <trkpt lat="44.53792" lon="5.5146">
        <ele>887.68</ele>
        <time>2018-05-23T12:48:38.000Z</time>
      </trkpt>
      <trkpt lat="44.53802" lon="5.5144">
        <ele>884.43</ele>
        <time>2018-05-23T12:48:48.000Z</time>
      </trkpt>
      <trkpt lat="44.53801" lon="5.51421">
        <ele>884.61</ele>
        <time>2018-05-23T12:48:58.000Z</time>
      </trkpt>
      <trkpt lat="44.53797" lon="5.51402">
        <ele>886.22</ele>
        <time>2018-05-23T12:49:08.000Z</time>
      </trkpt>
      <trkpt lat="44.53795" lon="5.51385">
        <ele>887.3</ele>
        <time>2018-05-23T12:49:18.000Z</time>
      </trkpt>
      <trkpt lat="44.53803" lon="5.51368">
        <ele>885.37</ele>
        <time>2018-05-23T12:49:28.000Z</time>
      </trkpt>
      <trkpt lat="44.5381" lon="5.51355">
        <ele>883.14</ele>
        <time>2018-05-23T12:49:38.000Z</time>
      </trkpt>
      <trkpt lat="44.53814" lon="5.51335">
        <ele>882.09</ele>
        <time>2018-05-23T12:49:48.000Z</time>
      </trkpt>
      <trkpt lat="44.53819" lon="5.51319">
        <ele>880.34</ele>
        <time>2018-05-23T12:49:58.000Z</time>
      </trkpt>
      <trkpt lat="44.53825" lon="5.51297">
        <ele>877.62</ele>
        <time>2018-05-23T12:50:08.000Z</time>
      </trkpt>
      <trkpt lat="44.5383" lon="5.51275">
        <ele>875.32</ele>
        <time>2018-05-23T12:50:18.000Z</time>
      </trkpt>
      <trkpt lat="44.53833" lon="5.51255">
        <ele>873.4</ele>
        <time>2018-05-23T12:50:28.000Z</time>
      </trkpt>
      <trkpt lat="44.53829" lon="5.51232">
        <ele>872.94</ele>
        <time>2018-05-23T12:50:38.000Z</time>
      </trkpt>
      <trkpt lat="44.53831" lon="5.51219">
        <ele>871.59</ele>
        <time>2018-05-23T12:50:49.000Z</time>
      </trkpt>
      <trkpt lat="44.53834" lon="5.51207">
        <ele>869.76</ele>
        <time>2018-05-23T12:51:01.000Z</time>
      </trkpt>
      <trkpt lat="44.53833" lon="5.51187">
        <ele>868.53</ele>
        <time>2018-05-23T12:51:11.000Z</time>
      </trkpt>
      <trkpt lat="44.53826" lon="5.51169">
        <ele>869.01</ele>
        <time>2018-05-23T12:51:21.000Z</time>
      </trkpt>
      <trkpt lat="44.53827" lon="5.51155">
        <ele>867.98</ele>
        <time>2018-05-23T12:51:31.000Z</time>
      </trkpt>
      <trkpt lat="44.53835" lon="5.51148">
        <ele>865.87</ele>
        <time>2018-05-23T12:51:51.000Z</time>
      </trkpt>
      <trkpt lat="44.53834" lon="5.51161">
        <ele>866.52</ele>
        <time>2018-05-23T12:52:04.000Z</time>
      </trkpt>
      <trkpt lat="44.53839" lon="5.5115">
        <ele>864.99</ele>
        <time>2018-05-23T12:52:15.000Z</time>
      </trkpt>
      <trkpt lat="44.53834" lon="5.51138">
        <ele>865.83</ele>
        <time>2018-05-23T12:55:31.000Z</time>
      </trkpt>
      <trkpt lat="44.53832" lon="5.51121">
        <ele>865.77</ele>
        <time>2018-05-23T12:55:41.000Z</time>
      </trkpt>
      <trkpt lat="44.53833" lon="5.51107">
        <ele>865.29</ele>
        <time>2018-05-23T12:55:51.000Z</time>
      </trkpt>
      <trkpt lat="44.53831" lon="5.51094">
        <ele>865.24</ele>
        <time>2018-05-23T12:56:05.000Z</time>
      </trkpt>
      <trkpt lat="44.53821" lon="5.51085">
        <ele>866.83</ele>
        <time>2018-05-23T12:56:15.000Z</time>
      </trkpt>
      <trkpt lat="44.5384" lon="5.51068">
        <ele>861.2</ele>
        <time>2018-05-23T12:56:25.000Z</time>
      </trkpt>
      <trkpt lat="44.53842" lon="5.51052">
        <ele>859.18</ele>
        <time>2018-05-23T12:56:35.000Z</time>
      </trkpt>
      <trkpt lat="44.53837" lon="5.51038">
        <ele>858.91</ele>
        <time>2018-05-23T12:56:45.000Z</time>
      </trkpt>
      <trkpt lat="44.5384" lon="5.5102">
        <ele>856.2</ele>
        <time>2018-05-23T12:56:55.000Z</time>
      </trkpt>
      <trkpt lat="44.53834" lon="5.51005">
        <ele>856.28</ele>
        <time>2018-05-23T12:57:05.000Z</time>
      </trkpt>
      <trkpt lat="44.53821" lon="5.50995">
        <ele>858.09</ele>
        <time>2018-05-23T12:57:16.000Z</time>
      </trkpt>
      <trkpt lat="44.53827" lon="5.50982">
        <ele>855.67</ele>
        <time>2018-05-23T12:57:26.000Z</time>
      </trkpt>
      <trkpt lat="44.53825" lon="5.50967">
        <ele>854.64</ele>
        <time>2018-05-23T12:57:36.000Z</time>
      </trkpt>
      <trkpt lat="44.53819" lon="5.5095">
        <ele>853.9</ele>
        <time>2018-05-23T12:57:46.000Z</time>
      </trkpt>
      <trkpt lat="44.53829" lon="5.50946">
        <ele>852.05</ele>
        <time>2018-05-23T12:57:56.000Z</time>
      </trkpt>
      <trkpt lat="44.53835" lon="5.50935">
        <ele>850.44</ele>
        <time>2018-05-23T12:58:11.000Z</time>
      </trkpt>
      <trkpt lat="44.5383" lon="5.50924">
        <ele>850.69</ele>
        <time>2018-05-23T12:58:23.000Z</time>
      </trkpt>
      <trkpt lat="44.538" lon="5.50915">
        <ele>853.58</ele>
        <time>2018-05-23T12:58:30.000Z</time>
      </trkpt>
    </trkseg>
  </trk>
</gpx>